Wetterdaten: Sonntag, 30.07.2023
Datum Zeit Temp. Aussen Temp. o. S. Temp +5cm Feuchte Auss Luftdruck Regen Sonnenschein Regendauer Solar Windben Empfang
30.07.2023 00:00 18,0 C 17,2 C 12,8 C 94 % 1009,4 hPa 0,0 l/m 0 min 0 min 0 W/m 3,2 km/h (1 Bft) 95,74 %
30.07.2023 00:02 17,9 C 17,2 C 12,8 C 94 % 1009,4 hPa 0,0 l/m 0 min 0 min 0 W/m 3,2 km/h (1 Bft) 94,59 %
30.07.2023 00:04 17,9 C 17,2 C 12,8 C 94 % 1009,5 hPa 0,0 l/m 0 min 0 min 0 W/m 6,4 km/h (2 Bft) 95,92 %
30.07.2023 00:08 17,8 C 17,2 C 12,8 C 93 % 1009,5 hPa 0,0 l/m 0 min 0 min 0 W/m 6,4 km/h (2 Bft) 97,87 %
30.07.2023 00:10 17,7 C 16,7 C 12,2 C 93 % 1009,5 hPa 0,0 l/m 0 min 0 min 0 W/m 3,2 km/h (1 Bft) 97,87 %
30.07.2023 00:12 17,7 C 16,7 C 12,2 C 92 % 1009,6 hPa 0,0 l/m 0 min 0 min 0 W/m 3,2 km/h (1 Bft) 97,87 %
30.07.2023 00:14 17,7 C 16,7 C 12,2 C 92 % 1009,6 hPa 0,0 l/m 0 min 0 min 0 W/m 6,4 km/h (2 Bft) 97,87 %
30.07.2023 00:16 17,6 C 16,7 C 12,2 C 92 % 1009,7 hPa 0,0 l/m 0 min 0 min 0 W/m 3,2 km/h (1 Bft) 97,87 %
30.07.2023 00:18 17,6 C 16,7 C 12,2 C 92 % 1009,7 hPa 0,0 l/m 0 min 0 min 0 W/m 12,9 km/h (3 Bft) 95,74 %
30.07.2023 00:20 17,6 C 16,7 C 11,7 C 91 % 1009,7 hPa 0,0 l/m 0 min 0 min 0 W/m 6,4 km/h (2 Bft) 97,87 %
30.07.2023 00:22 17,5 C 16,7 C 11,7 C 91 % 1009,8 hPa 0,0 l/m 0 min 0 min 0 W/m 6,4 km/h (2 Bft) 95,65 %
30.07.2023 00:24 17,5 C 16,7 C 11,7 C 91 % 1009,8 hPa 0,0 l/m 0 min 0 min 0 W/m 3,2 km/h (1 Bft) 97,87 %
30.07.2023 00:26 17,4 C 16,7 C 11,7 C 91 % 1009,8 hPa 0,0 l/m 0 min 0 min 0 W/m 6,4 km/h (2 Bft) 95,74 %
30.07.2023 00:28 17,4 C 16,7 C 11,7 C 90 % 1009,8 hPa 0,0 l/m 0 min 0 min 0 W/m 3,2 km/h (1 Bft) 97,87 %
30.07.2023 00:30 17,4 C 16,7 C 11,7 C 90 % 1009,8 hPa 0,0 l/m 0 min 0 min 0 W/m 3,2 km/h (1 Bft) 100,00 %
30.07.2023 00:32 17,4 C 16,7 C 11,7 C 90 % 1009,9 hPa 0,0 l/m 0 min 0 min 0 W/m 3,2 km/h (1 Bft) 95,74 %
30.07.2023 00:34 17,3 C 16,7 C 11,7 C 90 % 1009,9 hPa 0,0 l/m 0 min 0 min 0 W/m 6,4 km/h (2 Bft) 97,87 %
30.07.2023 00:36 17,3 C 16,7 C 11,7 C 89 % 1010,0 hPa 0,0 l/m 0 min 0 min 0 W/m 3,2 km/h (1 Bft) 95,65 %
30.07.2023 00:38 17,3 C 16,7 C 11,7 C 89 % 1009,9 hPa 0,0 l/m 0 min 0 min 0 W/m 3,2 km/h (1 Bft) 93,62 %
30.07.2023 00:40 17,3 C 16,7 C 11,7 C 89 % 1010,0 hPa 0,0 l/m 0 min 0 min 0 W/m 6,4 km/h (2 Bft) 95,74 %
30.07.2023 00:42 17,3 C 16,7 C 11,7 C 89 % 1010,0 hPa 0,0 l/m 0 min 0 min 0 W/m 6,4 km/h (2 Bft) 97,87 %
30.07.2023 00:44 17,3 C 16,1 C 11,7 C 89 % 1010,0 hPa 0,0 l/m 0 min 0 min 0 W/m 3,2 km/h (1 Bft) 52,27 %
30.07.2023 00:46 17,3 C 16,1 C 11,7 C 89 % 1010,0 hPa 0,0 l/m 0 min 0 min 0 W/m 3,2 km/h (1 Bft) 93,62 %
30.07.2023 00:48 17,2 C 16,1 C 11,7 C 89 % 1010,1 hPa 0,0 l/m 0 min 0 min 0 W/m 3,2 km/h (1 Bft) 97,87 %
30.07.2023 00:50 17,2 C 16,1 C 11,7 C 89 % 1010,1 hPa 0,0 l/m 0 min 0 min 0 W/m 3,2 km/h (1 Bft) 95,65 %
30.07.2023 00:52 17,2 C 16,1 C 11,7 C 89 % 1010,1 hPa 0,0 l/m 0 min 0 min 0 W/m 3,2 km/h (1 Bft) 93,62 %
30.07.2023 00:54 17,2 C 16,1 C 11,1 C 89 % 1010,1 hPa 0,0 l/m 0 min 0 min 0 W/m 3,2 km/h (1 Bft) 93,62 %
30.07.2023 00:56 17,2 C 16,1 C 11,7 C 89 % 1010,1 hPa 0,0 l/m 0 min 0 min 0 W/m 3,2 km/h (1 Bft) 93,62 %
30.07.2023 00:58 17,2 C 16,1 C 11,1 C 89 % 1010,2 hPa 0,0 l/m 0 min 0 min 0 W/m 3,2 km/h (1 Bft) 95,74 %
30.07.2023 01:00 17,1 C 15,6 C 11,1 C 89 % 1010,3 hPa 0,0 l/m 0 min 0 min 0 W/m 3,2 km/h (1 Bft) 95,74 %
30.07.2023 01:02 17,1 C 15,6 C 11,1 C 89 % 1010,3 hPa 0,0 l/m 0 min 0 min 0 W/m 0,0 km/h (0 Bft) 95,12 %
30.07.2023 01:04 17,1 C 15,6 C 11,1 C 89 % 1010,2 hPa 0,0 l/m 0 min 0 min 0 W/m 0,0 km/h (0 Bft) 94,55 %
30.07.2023 01:06 17,1 C 15,6 C 11,1 C 89 % 1010,3 hPa 0,0 l/m 0 min 0 min 0 W/m 0,0 km/h (0 Bft) 95,74 %
30.07.2023 01:08 17,1 C 15,6 C 11,1 C 89 % 1010,3 hPa 0,0 l/m 0 min 0 min 0 W/m 0,0 km/h (0 Bft) 94,29 %
30.07.2023 01:10 17,0 C 15,6 C 11,1 C 89 % 1010,3 hPa 0,0 l/m 0 min 0 min 0 W/m 0,0 km/h (0 Bft) 95,74 %
30.07.2023 01:12 17,0 C 15,6 C 11,1 C 90 % 1010,3 hPa 0,0 l/m 0 min 0 min 0 W/m 0,0 km/h (0 Bft) 97,87 %
30.07.2023 01:14 16,9 C 15,6 C 11,1 C 90 % 1010,3 hPa 0,0 l/m 0 min 0 min 0 W/m 0,0 km/h (0 Bft) 97,87 %
30.07.2023 01:16 16,9 C 15,6 C 11,1 C 90 % 1010,2 hPa 0,0 l/m 0 min 0 min 0 W/m 0,0 km/h (0 Bft) 95,74 %
30.07.2023 01:18 16,9 C 15,6 C 11,1 C 90 % 1010,2 hPa 0,0 l/m 0 min 0 min 0 W/m 3,2 km/h (1 Bft) 95,65 %
30.07.2023 01:20 16,9 C 15,6 C 11,1 C 90 % 1010,2 hPa 0,0 l/m 0 min 0 min 0 W/m 0,0 km/h (0 Bft) 100,00 %
30.07.2023 01:22 16,8 C 15,6 C 11,1 C 91 % 1010,2 hPa 0,0 l/m 0 min 0 min 0 W/m 0,0 km/h (0 Bft) 95,74 %
30.07.2023 01:24 16,8 C 15,6 C 11,1 C 91 % 1010,2 hPa 0,0 l/m 0 min 0 min 0 W/m 6,4 km/h (2 Bft) 97,87 %
30.07.2023 01:26 16,8 C 15,6 C 11,1 C 91 % 1010,3 hPa 0,0 l/m 0 min 0 min 0 W/m 6,4 km/h (2 Bft) 100,00 %
30.07.2023 01:28 16,8 C 15,6 C 11,1 C 91 % 1010,2 hPa 0,0 l/m 0 min 0 min 0 W/m 3,2 km/h (1 Bft) 100,00 %
30.07.2023 01:30 16,8 C 15,6 C 11,1 C 91 % 1010,3 hPa 0,0 l/m 0 min 0 min 0 W/m 3,2 km/h (1 Bft) 97,83 %
30.07.2023 01:32 16,8 C 15,6 C 11,1 C 92 % 1010,3 hPa 0,0 l/m 0 min 0 min 0 W/m 0,0 km/h (0 Bft) 97,87 %
30.07.2023 01:34 16,8 C 15,6 C 11,1 C 92 % 1010,3 hPa 0,0 l/m 0 min 0 min 0 W/m 3,2 km/h (1 Bft) 100,00 %
30.07.2023 01:36 16,7 C 15,6 C 11,1 C 92 % 1010,3 hPa 0,0 l/m 0 min 0 min 0 W/m 0,0 km/h (0 Bft) 100,00 %
30.07.2023 01:38 16,7 C 15,6 C 11,1 C 92 % 1010,3 hPa 0,0 l/m 0 min 0 min 0 W/m 3,2 km/h (1 Bft) 100,00 %
30.07.2023 01:40 16,7 C 15,0 C 11,1 C 92 % 1010,3 hPa 0,0 l/m 0 min 0 min 0 W/m 0,0 km/h (0 Bft) 100,00 %
30.07.2023 01:42 16,7 C 15,0 C 11,1 C 92 % 1010,3 hPa 0,0 l/m 0 min 0 min 0 W/m 3,2 km/h (1 Bft) 100,00 %
30.07.2023 01:44 16,6 C 15,0 C 11,7 C 92 % 1010,3 hPa 0,0 l/m 0 min 0 min 0 W/m 3,2 km/h (1 Bft) 100,00 %
30.07.2023 01:46 16,6 C 15,0 C 11,7 C 92 % 1010,3 hPa 0,0 l/m 0 min 0 min 0 W/m 0,0 km/h (0 Bft) 100,00 %
30.07.2023 01:48 16,6 C 15,6 C 11,7 C 93 % 1010,3 hPa 0,0 l/m 0 min 0 min 0 W/m 3,2 km/h (1 Bft) 100,00 %
30.07.2023 01:50 16,6 C 15,6 C 11,7 C 93 % 1010,3 hPa 0,0 l/m 0 min 0 min 0 W/m 3,2 km/h (1 Bft) 100,00 %
30.07.2023 01:52 16,6 C 15,6 C 11,7 C 93 % 1010,2 hPa 0,0 l/m 0 min 0 min 0 W/m 3,2 km/h (1 Bft) 100,00 %
30.07.2023 01:54 16,5 C 15,0 C 11,7 C 93 % 1010,3 hPa 0,0 l/m 0 min 0 min 0 W/m 3,2 km/h (1 Bft) 100,00 %
30.07.2023 01:56 16,5 C 15,0 C 11,7 C 93 % 1010,2 hPa 0,0 l/m 0 min 0 min 0 W/m 3,2 km/h (1 Bft) 97,83 %
30.07.2023 01:58 16,4 C 15,0 C 11,7 C 93 % 1010,3 hPa 0,0 l/m 0 min 0 min 0 W/m 3,2 km/h (1 Bft) 100,00 %
30.07.2023 02:00 16,4 C 15,0 C 11,7 C 93 % 1010,3 hPa 0,0 l/m 0 min 0 min 0 W/m 6,4 km/h (2 Bft) 100,00 %
30.07.2023 02:02 16,4 C 15,0 C 11,7 C 93 % 1010,3 hPa 0,0 l/m 0 min 0 min 0 W/m 6,4 km/h (2 Bft) 100,00 %
30.07.2023 02:04 16,3 C 15,0 C 11,7 C 93 % 1010,2 hPa 0,0 l/m 0 min 0 min 0 W/m 3,2 km/h (1 Bft) 100,00 %
30.07.2023 02:06 16,3 C 15,0 C 11,7 C 93 % 1010,2 hPa 0,0 l/m 0 min 0 min 0 W/m 3,2 km/h (1 Bft) 98,28 %
30.07.2023 02:08 16,3 C 15,0 C 11,7 C 93 % 1010,2 hPa 0,0 l/m 0 min 0 min 0 W/m 0,0 km/h (0 Bft) 100,00 %
30.07.2023 02:10 16,2 C 15,0 C 11,1 C 93 % 1010,2 hPa 0,0 l/m 0 min 0 min 0 W/m 3,2 km/h (1 Bft) 95,74 %
30.07.2023 02:12 16,1 C 15,0 C 11,1 C 93 % 1010,2 hPa 0,0 l/m 0 min 0 min 0 W/m 0,0 km/h (0 Bft) 97,87 %
30.07.2023 02:14 16,1 C 15,0 C 11,1 C 93 % 1010,2 hPa 0,0 l/m 0 min 0 min 0 W/m 0,0 km/h (0 Bft) 100,00 %
30.07.2023 02:16 16,1 C 15,0 C 11,1 C 93 % 1010,2 hPa 0,0 l/m 0 min 0 min 0 W/m 3,2 km/h (1 Bft) 100,00 %
30.07.2023 02:18 16,0 C 15,0 C 11,1 C 93 % 1010,2 hPa 0,0 l/m 0 min 0 min 0 W/m 0,0 km/h (0 Bft) 100,00 %
30.07.2023 02:20 16,0 C 15,0 C 11,1 C 93 % 1010,3 hPa 0,0 l/m 0 min 0 min 0 W/m 0,0 km/h (0 Bft) 100,00 %
30.07.2023 02:22 15,9 C 15,0 C 11,1 C 93 % 1010,2 hPa 0,0 l/m 0 min 0 min 0 W/m 0,0 km/h (0 Bft) 95,65 %
30.07.2023 02:24 15,9 C 15,0 C 11,1 C 93 % 1010,2 hPa 0,0 l/m 0 min 0 min 0 W/m 0,0 km/h (0 Bft) 100,00 %
30.07.2023 02:26 15,9 C 14,4 C 11,1 C 93 % 1010,2 hPa 0,0 l/m 0 min 0 min 0 W/m 0,0 km/h (0 Bft) 97,87 %
30.07.2023 02:28 15,8 C 14,4 C 11,1 C 93 % 1010,2 hPa 0,0 l/m 0 min 0 min 0 W/m 0,0 km/h (0 Bft) 97,87 %
30.07.2023 02:30 15,8 C 14,4 C 11,1 C 93 % 1010,2 hPa 0,0 l/m 0 min 0 min 0 W/m 0,0 km/h (0 Bft) 97,87 %
30.07.2023 02:32 15,8 C 14,4 C 11,1 C 93 % 1010,2 hPa 0,0 l/m 0 min 0 min 0 W/m 0,0 km/h (0 Bft) 100,00 %
30.07.2023 02:34 15,7 C 14,4 C 11,1 C 93 % 1010,2 hPa 0,0 l/m 0 min 0 min 0 W/m 3,2 km/h (1 Bft) 97,87 %
30.07.2023 02:36 15,7 C 14,4 C 11,1 C 93 % 1010,3 hPa 0,0 l/m 0 min 0 min 0 W/m 3,2 km/h (1 Bft) 97,83 %
30.07.2023 02:38 15,7 C 14,4 C 11,1 C 93 % 1010,2 hPa 0,0 l/m 0 min 0 min 0 W/m 0,0 km/h (0 Bft) 95,74 %
30.07.2023 02:40 15,7 C 14,4 C 11,1 C 93 % 1010,2 hPa 0,0 l/m 0 min 0 min 0 W/m 0,0 km/h (0 Bft) 97,87 %
30.07.2023 02:42 15,6 C 14,4 C 11,1 C 93 % 1010,3 hPa 0,0 l/m 0 min 0 min 0 W/m 0,0 km/h (0 Bft) 95,74 %
30.07.2023 02:44 15,6 C 14,4 C 11,1 C 93 % 1010,2 hPa 0,0 l/m 0 min 0 min 0 W/m 6,4 km/h (2 Bft) 95,74 %
30.07.2023 02:46 15,6 C 15,0 C 11,1 C 93 % 1010,2 hPa 0,0 l/m 0 min 0 min 0 W/m 6,4 km/h (2 Bft) 97,87 %
30.07.2023 02:48 15,6 C 15,0 C 11,1 C 93 % 1010,2 hPa 0,0 l/m 0 min 0 min 0 W/m 6,4 km/h (2 Bft) 95,65 %
30.07.2023 02:50 15,6 C 15,0 C 11,1 C 93 % 1010,2 hPa 0,0 l/m 0 min 0 min 0 W/m 3,2 km/h (1 Bft) 97,87 %
30.07.2023 02:52 15,6 C 15,0 C 11,1 C 93 % 1010,2 hPa 0,0 l/m 0 min 0 min 0 W/m 6,4 km/h (2 Bft) 97,87 %
30.07.2023 02:54 15,6 C 15,0 C 11,1 C 93 % 1010,2 hPa 0,0 l/m 0 min 0 min 0 W/m 3,2 km/h (1 Bft) 95,74 %
30.07.2023 02:56 15,6 C 15,0 C 11,1 C 93 % 1010,3 hPa 0,0 l/m 0 min 0 min 0 W/m 6,4 km/h (2 Bft) 95,74 %
30.07.2023 02:58 15,6 C 14,4 C 11,1 C 93 % 1010,3 hPa 0,0 l/m 0 min 0 min 0 W/m 6,4 km/h (2 Bft) 95,74 %
30.07.2023 03:00 15,6 C 14,4 C 11,1 C 93 % 1010,3 hPa 0,0 l/m 0 min 0 min 0 W/m 6,4 km/h (2 Bft) 95,65 %
30.07.2023 03:02 15,5 C 14,4 C 11,1 C 93 % 1010,3 hPa 0,0 l/m 0 min 0 min 0 W/m 12,9 km/h (3 Bft) 95,74 %
30.07.2023 03:04 15,5 C 14,4 C 11,1 C 93 % 1010,3 hPa 0,0 l/m 0 min 0 min 0 W/m 9,7 km/h (2 Bft) 97,96 %
30.07.2023 03:06 15,5 C 14,4 C 11,1 C 93 % 1010,3 hPa 0,0 l/m 0 min 0 min 0 W/m 6,4 km/h (2 Bft) 96,61 %
30.07.2023 03:08 15,5 C 14,4 C 11,1 C 93 % 1010,4 hPa 0,0 l/m 0 min 0 min 0 W/m 3,2 km/h (1 Bft) 100,00 %
30.07.2023 03:10 15,5 C 14,4 C 11,1 C 93 % 1010,3 hPa 0,0 l/m 0 min 0 min 0 W/m 9,7 km/h (2 Bft) 95,74 %
30.07.2023 03:12 15,5 C 14,4 C 11,1 C 93 % 1010,4 hPa 0,0 l/m 0 min 0 min 0 W/m 6,4 km/h (2 Bft) 95,65 %
30.07.2023 03:14 15,5 C 14,4 C 11,1 C 93 % 1010,4 hPa 0,0 l/m 0 min 0 min 0 W/m 6,4 km/h (2 Bft) 95,74 %
30.07.2023 03:16 15,4 C 14,4 C 11,1 C 93 % 1010,4 hPa 0,0 l/m 0 min 0 min 0 W/m 6,4 km/h (2 Bft) 93,62 %
30.07.2023 03:18 15,4 C 14,4 C 11,1 C 93 % 1010,4 hPa 0,0 l/m 0 min 0 min 0 W/m 3,2 km/h (1 Bft) 95,74 %
30.07.2023 03:20 15,4 C 14,4 C 11,1 C 93 % 1010,4 hPa 0,0 l/m 0 min 0 min 0 W/m 3,2 km/h (1 Bft) 95,74 %
30.07.2023 03:22 15,4 C 14,4 C 11,1 C 93 % 1010,4 hPa 0,0 l/m 0 min 0 min 0 W/m 6,4 km/h (2 Bft) 93,62 %
30.07.2023 03:24 15,4 C 14,4 C 11,1 C 93 % 1010,4 hPa 0,0 l/m 0 min 0 min 0 W/m 3,2 km/h (1 Bft) 95,74 %
30.07.2023 03:26 15,4 C 14,4 C 11,1 C 93 % 1010,5 hPa 0,0 l/m 0 min 0 min 0 W/m 6,4 km/h (2 Bft) 95,65 %
30.07.2023 03:28 15,4 C 14,4 C 11,1 C 93 % 1010,5 hPa 0,0 l/m 0 min 0 min 0 W/m 3,2 km/h (1 Bft) 95,74 %
30.07.2023 03:30 15,4 C 14,4 C 11,1 C 93 % 1010,5 hPa 0,0 l/m 0 min 0 min 0 W/m 3,2 km/h (1 Bft) 95,74 %
30.07.2023 03:32 15,4 C 14,4 C 11,1 C 93 % 1010,5 hPa 0,0 l/m 0 min 0 min 0 W/m 3,2 km/h (1 Bft) 95,74 %
30.07.2023 03:34 15,4 C 14,4 C 11,1 C 93 % 1010,5 hPa 0,0 l/m 0 min 0 min 0 W/m 3,2 km/h (1 Bft) 93,62 %
30.07.2023 03:36 15,4 C 14,4 C 11,1 C 93 % 1010,5 hPa 0,0 l/m 0 min 0 min 0 W/m 3,2 km/h (1 Bft) 93,62 %
30.07.2023 03:38 15,3 C 14,4 C 11,1 C 93 % 1010,6 hPa 0,0 l/m 0 min 0 min 0 W/m 12,9 km/h (3 Bft) 97,87 %
30.07.2023 03:40 15,3 C 14,4 C 11,1 C 93 % 1010,6 hPa 0,0 l/m 0 min 0 min 0 W/m 3,2 km/h (1 Bft) 97,83 %
30.07.2023 03:42 15,3 C 14,4 C 11,1 C 93 % 1010,6 hPa 0,0 l/m 0 min 0 min 0 W/m 3,2 km/h (1 Bft) 95,74 %
30.07.2023 03:44 15,3 C 14,4 C 11,1 C 93 % 1010,6 hPa 0,0 l/m 0 min 0 min 0 W/m 3,2 km/h (1 Bft) 97,87 %
30.07.2023 03:46 15,3 C 14,4 C 11,1 C 93 % 1010,7 hPa 0,0 l/m 0 min 0 min 0 W/m 9,7 km/h (2 Bft) 97,87 %
30.07.2023 03:48 15,3 C 14,4 C 11,1 C 93 % 1010,7 hPa 0,0 l/m 0 min 0 min 0 W/m 3,2 km/h (1 Bft) 97,87 %
30.07.2023 03:50 15,3 C 14,4 C 11,1 C 93 % 1010,7 hPa 0,0 l/m 0 min 0 min 0 W/m 6,4 km/h (2 Bft) 95,74 %
30.07.2023 03:52 15,2 C 14,4 C 11,1 C 93 % 1010,7 hPa 0,0 l/m 0 min 0 min 0 W/m 6,4 km/h (2 Bft) 97,83 %
30.07.2023 03:54 15,2 C 14,4 C 11,1 C 93 % 1010,7 hPa 0,0 l/m 0 min 0 min 0 W/m 6,4 km/h (2 Bft) 97,87 %
30.07.2023 03:56 15,2 C 14,4 C 11,1 C 93 % 1010,8 hPa 0,0 l/m 0 min 0 min 0 W/m 9,7 km/h (2 Bft) 95,74 %
30.07.2023 03:58 15,2 C 14,4 C 11,1 C 93 % 1010,8 hPa 0,0 l/m 0 min 0 min 0 W/m 3,2 km/h (1 Bft) 100,00 %
30.07.2023 04:00 15,2 C 13,9 C 11,1 C 93 % 1010,7 hPa 0,0 l/m 0 min 0 min 0 W/m 9,7 km/h (2 Bft) 97,87 %
30.07.2023 04:02 15,1 C 13,9 C 11,1 C 93 % 1010,7 hPa 0,0 l/m 0 min 0 min 0 W/m 3,2 km/h (1 Bft) 96,30 %
30.07.2023 04:04 15,1 C 13,9 C 11,1 C 93 % 1010,7 hPa 0,0 l/m 0 min 0 min 0 W/m 6,4 km/h (2 Bft) 95,83 %
30.07.2023 04:06 15,1 C 13,9 C 11,1 C 93 % 1010,7 hPa 0,0 l/m 0 min 0 min 0 W/m 9,7 km/h (2 Bft) 98,31 %
30.07.2023 04:08 15,1 C 13,9 C 11,1 C 93 % 1010,7 hPa 0,0 l/m 0 min 0 min 0 W/m 6,4 km/h (2 Bft) 100,00 %
30.07.2023 04:10 15,1 C 14,4 C 11,1 C 93 % 1010,7 hPa 0,0 l/m 0 min 0 min 0 W/m 3,2 km/h (1 Bft) 100,00 %
30.07.2023 04:12 15,1 C 14,4 C 11,1 C 93 % 1010,7 hPa 0,0 l/m 0 min 0 min 0 W/m 9,7 km/h (2 Bft) 95,74 %
30.07.2023 04:14 15,0 C 14,4 C 11,1 C 93 % 1010,7 hPa 0,0 l/m 0 min 0 min 0 W/m 6,4 km/h (2 Bft) 97,87 %
30.07.2023 04:16 15,0 C 14,4 C 11,1 C 93 % 1010,7 hPa 0,0 l/m 0 min 0 min 0 W/m 3,2 km/h (1 Bft) 97,87 %
30.07.2023 04:18 15,0 C 14,4 C 11,1 C 93 % 1010,7 hPa 0,0 l/m 0 min 0 min 0 W/m 3,2 km/h (1 Bft) 97,87 %
30.07.2023 04:20 15,0 C 13,9 C 11,1 C 93 % 1010,6 hPa 0,0 l/m 0 min 0 min 0 W/m 3,2 km/h (1 Bft) 97,87 %
30.07.2023 04:22 15,0 C 13,9 C 11,1 C 93 % 1010,6 hPa 0,0 l/m 0 min 0 min 0 W/m 0,0 km/h (0 Bft) 95,65 %
30.07.2023 04:24 14,9 C 13,9 C 11,1 C 93 % 1010,7 hPa 0,0 l/m 0 min 0 min 0 W/m 3,2 km/h (1 Bft) 97,87 %
30.07.2023 04:26 14,9 C 13,9 C 11,1 C 93 % 1010,6 hPa 0,0 l/m 0 min 0 min 0 W/m 3,2 km/h (1 Bft) 97,87 %
30.07.2023 04:28 14,9 C 13,9 C 10,6 C 93 % 1010,6 hPa 0,0 l/m 0 min 0 min 0 W/m 3,2 km/h (1 Bft) 97,87 %
30.07.2023 04:30 14,9 C 13,9 C 10,6 C 93 % 1010,6 hPa 0,0 l/m 0 min 0 min 0 W/m 0,0 km/h (0 Bft) 97,87 %
30.07.2023 04:32 14,8 C 13,9 C 10,6 C 93 % 1010,6 hPa 0,0 l/m 0 min 0 min 0 W/m 3,2 km/h (1 Bft) 95,74 %
30.07.2023 04:34 14,8 C 13,9 C 10,6 C 93 % 1010,7 hPa 0,0 l/m 0 min 0 min 0 W/m 3,2 km/h (1 Bft) 97,83 %
30.07.2023 04:36 14,8 C 13,9 C 10,6 C 93 % 1010,7 hPa 0,0 l/m 0 min 0 min 0 W/m 0,0 km/h (0 Bft) 97,87 %
30.07.2023 04:38 14,8 C 13,9 C 10,6 C 93 % 1010,7 hPa 0,0 l/m 0 min 0 min 0 W/m 3,2 km/h (1 Bft) 97,87 %
30.07.2023 04:40 14,8 C 13,9 C 10,6 C 93 % 1010,7 hPa 0,0 l/m 0 min 0 min 0 W/m 0,0 km/h (0 Bft) 95,74 %
30.07.2023 04:42 14,8 C 13,9 C 10,6 C 93 % 1010,7 hPa 0,0 l/m 0 min 0 min 0 W/m 0,0 km/h (0 Bft) 100,00 %
30.07.2023 04:44 14,8 C 13,9 C 10,6 C 93 % 1010,7 hPa 0,0 l/m 0 min 0 min 0 W/m 3,2 km/h (1 Bft) 100,00 %
30.07.2023 04:46 14,7 C 13,9 C 10,6 C 93 % 1010,7 hPa 0,0 l/m 0 min 0 min 0 W/m 3,2 km/h (1 Bft) 100,00 %
30.07.2023 04:48 14,7 C 13,9 C 10,6 C 93 % 1010,7 hPa 0,0 l/m 0 min 0 min 0 W/m 3,2 km/h (1 Bft) 100,00 %
30.07.2023 04:50 14,7 C 13,9 C 10,6 C 93 % 1010,7 hPa 0,0 l/m 0 min 0 min 0 W/m 3,2 km/h (1 Bft) 97,87 %
30.07.2023 04:52 14,7 C 13,9 C 10,6 C 93 % 1010,7 hPa 0,0 l/m 0 min 0 min 0 W/m 3,2 km/h (1 Bft) 100,00 %
30.07.2023 04:54 14,7 C 13,9 C 10,6 C 93 % 1010,7 hPa 0,0 l/m 0 min 0 min 0 W/m 3,2 km/h (1 Bft) 100,00 %
30.07.2023 04:56 14,7 C 13,9 C 10,6 C 93 % 1010,7 hPa 0,0 l/m 0 min 0 min 0 W/m 6,4 km/h (2 Bft) 97,87 %
30.07.2023 04:58 14,6 C 13,9 C 10,6 C 93 % 1010,7 hPa 0,0 l/m 0 min 0 min 0 W/m 3,2 km/h (1 Bft) 100,00 %
30.07.2023 05:00 14,6 C 13,9 C 10,6 C 93 % 1010,7 hPa 0,0 l/m 0 min 0 min 0 W/m 3,2 km/h (1 Bft) 100,00 %
30.07.2023 05:02 14,6 C 13,9 C 10,6 C 93 % 1010,7 hPa 0,0 l/m 0 min 0 min 0 W/m 6,4 km/h (2 Bft) 100,00 %
30.07.2023 05:04 14,6 C 13,9 C 10,6 C 94 % 1010,7 hPa 0,0 l/m 0 min 0 min 0 W/m 3,2 km/h (1 Bft) 97,87 %
30.07.2023 05:06 14,6 C 13,9 C 10,6 C 94 % 1010,7 hPa 0,0 l/m 0 min 0 min 0 W/m 9,7 km/h (2 Bft) 100,00 %
30.07.2023 05:08 14,6 C 13,9 C 10,6 C 94 % 1010,7 hPa 0,0 l/m 0 min 0 min 0 W/m 6,4 km/h (2 Bft) 100,00 %
30.07.2023 05:10 14,6 C 13,9 C 10,6 C 94 % 1010,7 hPa 0,0 l/m 0 min 0 min 0 W/m 3,2 km/h (1 Bft) 100,00 %
30.07.2023 05:12 14,5 C 13,9 C 10,6 C 94 % 1010,7 hPa 0,0 l/m 0 min 0 min 0 W/m 9,7 km/h (2 Bft) 97,87 %
30.07.2023 05:14 14,5 C 13,9 C 10,6 C 94 % 1010,8 hPa 0,0 l/m 0 min 0 min 0 W/m 6,4 km/h (2 Bft) 100,00 %
30.07.2023 05:16 14,5 C 13,9 C 10,6 C 94 % 1010,9 hPa 0,0 l/m 0 min 0 min 0 W/m 3,2 km/h (1 Bft) 100,00 %
30.07.2023 05:18 14,5 C 13,9 C 10,6 C 94 % 1010,9 hPa 0,0 l/m 0 min 0 min 0 W/m 6,4 km/h (2 Bft) 100,00 %
30.07.2023 05:20 14,5 C 13,9 C 10,6 C 94 % 1010,8 hPa 0,0 l/m 0 min 0 min 0 W/m 3,2 km/h (1 Bft) 100,00 %
30.07.2023 05:22 14,5 C 13,9 C 10,6 C 94 % 1010,8 hPa 0,0 l/m 0 min 0 min 0 W/m 3,2 km/h (1 Bft) 98,25 %
30.07.2023 05:24 14,5 C 13,9 C 10,6 C 94 % 1010,8 hPa 0,0 l/m 0 min 0 min 0 W/m 3,2 km/h (1 Bft) 97,92 %
30.07.2023 05:26 14,5 C 13,9 C 10,6 C 94 % 1010,8 hPa 0,0 l/m 0 min 0 min 0 W/m 3,2 km/h (1 Bft) 100,00 %
30.07.2023 05:28 14,5 C 13,9 C 10,6 C 94 % 1010,8 hPa 0,0 l/m 0 min 0 min 0 W/m 3,2 km/h (1 Bft) 96,30 %
30.07.2023 05:30 14,5 C 13,9 C 10,6 C 94 % 1010,9 hPa 0,0 l/m 0 min 0 min 0 W/m 3,2 km/h (1 Bft) 97,87 %
30.07.2023 05:32 14,5 C 13,9 C 10,6 C 94 % 1010,9 hPa 0,0 l/m 0 min 0 min 0 W/m 0,0 km/h (0 Bft) 95,74 %
30.07.2023 05:34 14,4 C 13,9 C 10,6 C 94 % 1010,9 hPa 0,0 l/m 0 min 0 min 0 W/m 0,0 km/h (0 Bft) 97,87 %
30.07.2023 05:36 14,4 C 13,9 C 10,6 C 94 % 1010,9 hPa 0,0 l/m 0 min 0 min 0 W/m 6,4 km/h (2 Bft) 97,87 %
30.07.2023 05:38 14,4 C 13,9 C 10,6 C 94 % 1010,9 hPa 0,0 l/m 0 min 0 min 0 W/m 3,2 km/h (1 Bft) 97,87 %
30.07.2023 05:40 14,4 C 13,9 C 10,6 C 94 % 1011,0 hPa 0,0 l/m 0 min 0 min 0 W/m 3,2 km/h (1 Bft) 97,83 %
30.07.2023 05:42 14,4 C 13,9 C 10,6 C 94 % 1011,0 hPa 0,0 l/m 0 min 0 min 0 W/m 3,2 km/h (1 Bft) 97,87 %
30.07.2023 05:44 14,4 C 13,9 C 10,6 C 94 % 1011,0 hPa 0,0 l/m 0 min 0 min 0 W/m 3,2 km/h (1 Bft) 97,87 %
30.07.2023 05:46 14,4 C 13,9 C 10,6 C 94 % 1011,0 hPa 0,0 l/m 0 min 0 min 0 W/m 0,0 km/h (0 Bft) 95,74 %
30.07.2023 05:48 14,4 C 13,9 C 10,6 C 94 % 1011,0 hPa 0,0 l/m 0 min 0 min 0 W/m 6,4 km/h (2 Bft) 97,87 %
30.07.2023 05:50 14,4 C 13,9 C 10,6 C 94 % 1011,0 hPa 0,0 l/m 0 min 0 min 0 W/m 3,2 km/h (1 Bft) 97,87 %
30.07.2023 05:52 14,4 C 13,9 C 11,1 C 94 % 1011,0 hPa 0,0 l/m 0 min 0 min 0 W/m 3,2 km/h (1 Bft) 97,83 %
30.07.2023 05:54 14,4 C 13,9 C 11,1 C 94 % 1011,0 hPa 0,0 l/m 0 min 0 min 0 W/m 3,2 km/h (1 Bft) 93,62 %
30.07.2023 05:56 14,4 C 13,9 C 11,1 C 94 % 1011,0 hPa 0,0 l/m 0 min 0 min 0 W/m 3,2 km/h (1 Bft) 93,62 %
30.07.2023 05:58 14,5 C 13,9 C 11,1 C 94 % 1011,0 hPa 0,0 l/m 0 min 0 min 4 W/m 6,4 km/h (2 Bft) 95,74 %
30.07.2023 06:00 14,5 C 13,9 C 11,1 C 94 % 1011,0 hPa 0,0 l/m 0 min 0 min 5 W/m 6,4 km/h (2 Bft) 93,62 %
30.07.2023 06:02 14,5 C 13,9 C 11,1 C 94 % 1010,9 hPa 0,0 l/m 0 min 0 min 5 W/m 6,4 km/h (2 Bft) 95,74 %
30.07.2023 06:04 14,6 C 13,9 C 11,1 C 94 % 1011,0 hPa 0,0 l/m 0 min 0 min 5 W/m 6,4 km/h (2 Bft) 92,86 %
30.07.2023 06:08 14,6 C 14,4 C 11,1 C 94 % 1011,0 hPa 0,0 l/m 0 min 0 min 7 W/m 3,2 km/h (1 Bft) 97,06 %
30.07.2023 06:10 14,6 C 14,4 C 11,1 C 94 % 1011,0 hPa 0,0 l/m 0 min 0 min 10 W/m 3,2 km/h (1 Bft) 97,87 %
30.07.2023 06:12 14,7 C 14,4 C 11,1 C 94 % 1011,0 hPa 0,0 l/m 0 min 0 min 11 W/m 3,2 km/h (1 Bft) 97,87 %
30.07.2023 06:16 14,7 C 14,4 C 11,1 C 94 % 1011,0 hPa 0,0 l/m 0 min 0 min 10 W/m 6,4 km/h (2 Bft) 96,77 %
30.07.2023 06:18 14,7 C 14,4 C 11,1 C 94 % 1011,0 hPa 0,0 l/m 0 min 0 min 11 W/m 3,2 km/h (1 Bft) 97,87 %
30.07.2023 06:20 14,8 C 14,4 C 11,7 C 94 % 1011,1 hPa 0,0 l/m 0 min 0 min 12 W/m 6,4 km/h (2 Bft) 95,74 %
30.07.2023 06:22 14,8 C 14,4 C 11,7 C 94 % 1011,1 hPa 0,0 l/m 0 min 0 min 13 W/m 6,4 km/h (2 Bft) 97,87 %
30.07.2023 06:24 14,8 C 14,4 C 11,7 C 94 % 1011,1 hPa 0,0 l/m 0 min 0 min 12 W/m 3,2 km/h (1 Bft) 100,00 %
30.07.2023 06:26 14,9 C 14,4 C 11,7 C 94 % 1011,1 hPa 0,0 l/m 0 min 0 min 13 W/m 6,4 km/h (2 Bft) 97,87 %
30.07.2023 06:28 14,9 C 14,4 C 11,7 C 94 % 1011,1 hPa 0,0 l/m 0 min 0 min 17 W/m 3,2 km/h (1 Bft) 100,00 %
30.07.2023 06:30 14,9 C 14,4 C 11,7 C 94 % 1011,1 hPa 0,0 l/m 0 min 0 min 19 W/m 3,2 km/h (1 Bft) 97,83 %
30.07.2023 06:32 15,0 C 14,4 C 11,7 C 94 % 1011,2 hPa 0,0 l/m 0 min 0 min 20 W/m 6,4 km/h (2 Bft) 97,87 %
30.07.2023 06:34 15,1 C 15,0 C 11,7 C 94 % 1011,2 hPa 0,0 l/m 0 min 0 min 24 W/m 6,4 km/h (2 Bft) 95,74 %
30.07.2023 06:36 15,1 C 15,0 C 11,7 C 94 % 1011,1 hPa 0,0 l/m 0 min 0 min 26 W/m 6,4 km/h (2 Bft) 91,49 %
30.07.2023 06:38 15,2 C 15,0 C 11,7 C 94 % 1011,2 hPa 0,0 l/m 0 min 0 min 23 W/m 9,7 km/h (2 Bft) 97,87 %
30.07.2023 06:40 15,2 C 15,0 C 11,7 C 94 % 1011,2 hPa 0,0 l/m 0 min 0 min 19 W/m 6,4 km/h (2 Bft) 97,87 %
30.07.2023 06:42 15,2 C 15,0 C 11,7 C 94 % 1011,2 hPa 0,0 l/m 0 min 0 min 19 W/m 3,2 km/h (1 Bft) 95,65 %
30.07.2023 06:44 15,3 C 15,0 C 11,7 C 94 % 1011,1 hPa 0,0 l/m 0 min 0 min 25 W/m 6,4 km/h (2 Bft) 97,87 %
30.07.2023 06:46 15,3 C 15,0 C 11,7 C 94 % 1011,1 hPa 0,0 l/m 0 min 0 min 32 W/m 3,2 km/h (1 Bft) 97,87 %
30.07.2023 06:48 15,3 C 15,0 C 11,7 C 93 % 1011,2 hPa 0,0 l/m 0 min 0 min 34 W/m 6,4 km/h (2 Bft) 95,74 %
30.07.2023 06:50 15,3 C 15,0 C 11,7 C 93 % 1011,2 hPa 0,0 l/m 0 min 0 min 32 W/m 9,7 km/h (2 Bft) 97,87 %
30.07.2023 06:52 15,3 C 15,0 C 12,2 C 93 % 1011,1 hPa 0,0 l/m 0 min 0 min 32 W/m 9,7 km/h (2 Bft) 97,37 %
30.07.2023 06:54 15,4 C 15,0 C 11,7 C 93 % 1011,2 hPa 0,0 l/m 0 min 0 min 32 W/m 6,4 km/h (2 Bft) 95,74 %
30.07.2023 06:56 15,4 C 15,0 C 11,7 C 93 % 1011,2 hPa 0,0 l/m 0 min 0 min 32 W/m 9,7 km/h (2 Bft) 97,87 %
30.07.2023 06:58 15,4 C 15,0 C 11,7 C 93 % 1011,2 hPa 0,0 l/m 0 min 0 min 32 W/m 12,9 km/h (3 Bft) 97,83 %
30.07.2023 07:00 15,4 C 15,0 C 11,7 C 93 % 1011,2 hPa 0,0 l/m 0 min 0 min 32 W/m 12,9 km/h (3 Bft) 97,87 %
30.07.2023 07:02 15,5 C 15,0 C 11,7 C 93 % 1011,2 hPa 0,0 l/m 0 min 0 min 33 W/m 12,9 km/h (3 Bft) 95,74 %
30.07.2023 07:04 15,5 C 15,0 C 11,7 C 93 % 1011,2 hPa 0,0 l/m 0 min 0 min 33 W/m 16,1 km/h (3 Bft) 98,00 %
30.07.2023 07:06 15,5 C 15,0 C 11,7 C 93 % 1011,2 hPa 0,0 l/m 0 min 0 min 34 W/m 6,4 km/h (2 Bft) 96,55 %
30.07.2023 07:08 15,5 C 15,0 C 11,7 C 93 % 1011,2 hPa 0,0 l/m 0 min 0 min 38 W/m 12,9 km/h (3 Bft) 100,00 %
30.07.2023 07:10 15,6 C 15,0 C 12,2 C 93 % 1011,2 hPa 0,0 l/m 0 min 0 min 40 W/m 12,9 km/h (3 Bft) 97,87 %
30.07.2023 07:12 15,5 C 15,0 C 12,2 C 93 % 1011,2 hPa 0,0 l/m 0 min 0 min 40 W/m 19,3 km/h (3 Bft) 97,87 %
30.07.2023 07:14 15,5 C 15,0 C 12,2 C 93 % 1011,3 hPa 0,0 l/m 0 min 0 min 41 W/m 12,9 km/h (3 Bft) 93,62 %
30.07.2023 07:16 15,5 C 15,0 C 12,2 C 93 % 1011,2 hPa 0,0 l/m 0 min 0 min 37 W/m 6,4 km/h (2 Bft) 97,87 %
30.07.2023 07:18 15,5 C 15,0 C 12,2 C 93 % 1011,2 hPa 0,0 l/m 0 min 0 min 40 W/m 19,3 km/h (3 Bft) 95,74 %
30.07.2023 07:20 15,5 C 15,0 C 12,2 C 92 % 1011,2 hPa 0,0 l/m 0 min 0 min 42 W/m 6,4 km/h (2 Bft) 57,45 %
30.07.2023 07:22 15,5 C 15,0 C 12,2 C 92 % 1011,2 hPa 0,0 l/m 0 min 0 min 51 W/m 12,9 km/h (3 Bft) 100,00 %
30.07.2023 07:24 15,5 C 15,0 C 12,2 C 92 % 1011,2 hPa 0,0 l/m 0 min 0 min 53 W/m 6,4 km/h (2 Bft) 100,00 %
30.07.2023 07:26 15,4 C 15,0 C 12,2 C 92 % 1011,2 hPa 0,0 l/m 0 min 0 min 49 W/m 16,1 km/h (3 Bft) 100,00 %
30.07.2023 07:28 15,4 C 15,0 C 12,2 C 92 % 1011,2 hPa 0,0 l/m 0 min 0 min 55 W/m 16,1 km/h (3 Bft) 100,00 %
30.07.2023 07:30 15,4 C 15,0 C 12,2 C 91 % 1011,3 hPa 0,0 l/m 0 min 0 min 64 W/m 19,3 km/h (3 Bft) 97,87 %
30.07.2023 07:32 15,4 C 15,0 C 12,2 C 91 % 1011,3 hPa 0,0 l/m 0 min 0 min 71 W/m 16,1 km/h (3 Bft) 100,00 %
30.07.2023 07:34 15,4 C 15,0 C 12,2 C 91 % 1011,2 hPa 0,0 l/m 0 min 0 min 68 W/m 9,7 km/h (2 Bft) 100,00 %
30.07.2023 07:36 15,4 C 15,0 C 12,2 C 91 % 1011,2 hPa 0,0 l/m 0 min 0 min 63 W/m 19,3 km/h (3 Bft) 100,00 %
30.07.2023 07:38 15,5 C 15,0 C 12,2 C 91 % 1011,3 hPa 0,0 l/m 0 min 0 min 66 W/m 9,7 km/h (2 Bft) 100,00 %
30.07.2023 07:40 15,5 C 15,0 C 12,2 C 91 % 1011,2 hPa 0,0 l/m 0 min 0 min 71 W/m 16,1 km/h (3 Bft) 100,00 %
30.07.2023 07:42 15,5 C 15,0 C 12,2 C 91 % 1011,3 hPa 0,0 l/m 0 min 0 min 72 W/m 12,9 km/h (3 Bft) 97,87 %
30.07.2023 07:44 15,6 C 15,0 C 12,2 C 91 % 1011,3 hPa 0,0 l/m 0 min 0 min 83 W/m 12,9 km/h (3 Bft) 100,00 %
30.07.2023 07:46 15,6 C 15,0 C 12,2 C 91 % 1011,3 hPa 0,0 l/m 0 min 0 min 89 W/m 12,9 km/h (3 Bft) 97,87 %
30.07.2023 07:48 15,6 C 15,0 C 12,2 C 90 % 1011,4 hPa 0,0 l/m 0 min 0 min 85 W/m 12,9 km/h (3 Bft) 93,48 %
30.07.2023 07:50 15,6 C 15,0 C 12,2 C 90 % 1011,3 hPa 0,0 l/m 0 min 0 min 91 W/m 12,9 km/h (3 Bft) 97,87 %
30.07.2023 07:52 15,6 C 15,6 C 12,2 C 90 % 1011,3 hPa 0,0 l/m 0 min 0 min 103 W/m 12,9 km/h (3 Bft) 95,74 %
30.07.2023 07:54 15,6 C 15,6 C 12,2 C 91 % 1011,3 hPa 0,0 l/m 0 min 0 min 94 W/m 12,9 km/h (3 Bft) 95,74 %
30.07.2023 07:56 15,6 C 15,6 C 12,2 C 91 % 1011,3 hPa 0,0 l/m 0 min 0 min 87 W/m 16,1 km/h (3 Bft) 97,87 %
30.07.2023 07:58 15,6 C 15,6 C 12,2 C 91 % 1011,4 hPa 0,0 l/m 0 min 0 min 72 W/m 9,7 km/h (2 Bft) 93,62 %
30.07.2023 08:00 15,6 C 15,6 C 12,2 C 90 % 1011,4 hPa 0,0 l/m 0 min 0 min 68 W/m 12,9 km/h (3 Bft) 97,87 %
30.07.2023 08:02 15,7 C 15,6 C 12,2 C 90 % 1011,4 hPa 0,0 l/m 0 min 0 min 74 W/m 12,9 km/h (3 Bft) 95,65 %
30.07.2023 08:04 15,7 C 15,6 C 12,2 C 90 % 1011,4 hPa 0,0 l/m 0 min 0 min 88 W/m 6,4 km/h (2 Bft) 95,83 %
30.07.2023 08:06 15,7 C 15,6 C 12,2 C 90 % 1011,4 hPa 0,0 l/m 0 min 0 min 95 W/m 16,1 km/h (3 Bft) 93,22 %
30.07.2023 08:08 15,7 C 15,6 C 12,2 C 90 % 1011,4 hPa 0,0 l/m 0 min 0 min 95 W/m 16,1 km/h (3 Bft) 94,29 %
30.07.2023 08:10 15,7 C 15,6 C 12,2 C 90 % 1011,4 hPa 0,0 l/m 0 min 0 min 99 W/m 16,1 km/h (3 Bft) 93,62 %
30.07.2023 08:12 15,7 C 15,6 C 12,2 C 90 % 1011,5 hPa 0,0 l/m 0 min 0 min 106 W/m 12,9 km/h (3 Bft) 95,74 %
30.07.2023 08:14 15,7 C 15,6 C 12,2 C 90 % 1011,5 hPa 0,0 l/m 0 min 0 min 116 W/m 9,7 km/h (2 Bft) 95,74 %
30.07.2023 08:16 15,7 C 15,6 C 12,2 C 90 % 1011,5 hPa 0,0 l/m 0 min 0 min 120 W/m 19,3 km/h (3 Bft) 97,83 %
30.07.2023 08:18 15,7 C 15,6 C 12,2 C 90 % 1011,5 hPa 0,0 l/m 0 min 0 min 118 W/m 19,3 km/h (3 Bft) 97,87 %
30.07.2023 08:20 15,7 C 15,6 C 12,2 C 90 % 1011,5 hPa 0,0 l/m 0 min 0 min 116 W/m 12,9 km/h (3 Bft) 97,87 %
30.07.2023 08:22 15,7 C 15,6 C 12,2 C 90 % 1011,6 hPa 0,0 l/m 0 min 0 min 126 W/m 12,9 km/h (3 Bft) 97,87 %
30.07.2023 08:24 15,8 C 15,6 C 12,2 C 90 % 1011,5 hPa 0,0 l/m 0 min 0 min 134 W/m 12,9 km/h (3 Bft) 97,87 %
30.07.2023 08:26 15,8 C 15,6 C 12,2 C 90 % 1011,5 hPa 0,0 l/m 0 min 0 min 134 W/m 12,9 km/h (3 Bft) 95,74 %
30.07.2023 08:28 15,8 C 15,6 C 12,2 C 90 % 1011,5 hPa 0,0 l/m 0 min 0 min 139 W/m 16,1 km/h (3 Bft) 97,83 %
30.07.2023 08:30 15,8 C 15,6 C 12,2 C 90 % 1011,4 hPa 0,0 l/m 0 min 0 min 149 W/m 12,9 km/h (3 Bft) 97,87 %
30.07.2023 08:32 15,8 C 15,6 C 12,2 C 90 % 1011,4 hPa 0,0 l/m 0 min 0 min 150 W/m 16,1 km/h (3 Bft) 97,87 %
30.07.2023 08:34 15,8 C 15,6 C 12,2 C 90 % 1011,5 hPa 0,0 l/m 0 min 0 min 143 W/m 22,5 km/h (4 Bft) 97,87 %
30.07.2023 08:36 15,9 C 15,6 C 12,8 C 90 % 1011,5 hPa 0,0 l/m 0 min 0 min 142 W/m 6,4 km/h (2 Bft) 97,87 %
30.07.2023 08:38 15,9 C 15,6 C 12,8 C 90 % 1011,5 hPa 0,0 l/m 0 min 0 min 140 W/m 12,9 km/h (3 Bft) 95,74 %
30.07.2023 08:40 15,9 C 16,1 C 12,8 C 90 % 1011,6 hPa 0,0 l/m 0 min 0 min 137 W/m 16,1 km/h (3 Bft) 95,74 %
30.07.2023 08:42 16,0 C 16,1 C 12,8 C 90 % 1011,6 hPa 0,0 l/m 0 min 0 min 134 W/m 16,1 km/h (3 Bft) 97,83 %
30.07.2023 08:44 16,0 C 16,1 C 12,8 C 90 % 1011,6 hPa 0,0 l/m 0 min 0 min 138 W/m 22,5 km/h (4 Bft) 97,87 %
30.07.2023 08:46 16,1 C 16,1 C 12,8 C 90 % 1011,6 hPa 0,0 l/m 0 min 0 min 147 W/m 12,9 km/h (3 Bft) 95,74 %
30.07.2023 08:48 16,1 C 16,1 C 12,8 C 90 % 1011,6 hPa 0,0 l/m 0 min 0 min 157 W/m 12,9 km/h (3 Bft) 97,87 %
30.07.2023 08:50 16,1 C 16,1 C 12,8 C 90 % 1011,6 hPa 0,0 l/m 0 min 0 min 167 W/m 12,9 km/h (3 Bft) 100,00 %
30.07.2023 08:52 16,1 C 16,1 C 12,8 C 90 % 1011,6 hPa 0,0 l/m 0 min 0 min 173 W/m 19,3 km/h (3 Bft) 97,87 %
30.07.2023 08:54 16,2 C 16,1 C 12,8 C 90 % 1011,6 hPa 0,0 l/m 0 min 0 min 171 W/m 12,9 km/h (3 Bft) 97,83 %
30.07.2023 08:56 16,2 C 16,7 C 12,8 C 90 % 1011,6 hPa 0,0 l/m 0 min 0 min 169 W/m 12,9 km/h (3 Bft) 100,00 %
30.07.2023 08:58 16,3 C 16,7 C 12,8 C 90 % 1011,7 hPa 0,0 l/m 0 min 0 min 172 W/m 9,7 km/h (2 Bft) 100,00 %
30.07.2023 09:00 16,3 C 16,7 C 12,8 C 90 % 1011,7 hPa 0,0 l/m 0 min 0 min 174 W/m 12,9 km/h (3 Bft) 100,00 %
30.07.2023 09:02 16,3 C 16,7 C 12,8 C 90 % 1011,7 hPa 0,0 l/m 0 min 0 min 189 W/m 19,3 km/h (3 Bft) 97,87 %
30.07.2023 09:04 16,3 C 16,7 C 12,8 C 90 % 1011,7 hPa 0,0 l/m 0 min 0 min 205 W/m 16,1 km/h (3 Bft) 100,00 %
30.07.2023 09:06 16,3 C 16,7 C 12,8 C 90 % 1011,6 hPa 0,0 l/m 0 min 0 min 216 W/m 22,5 km/h (4 Bft) 97,87 %
30.07.2023 09:08 16,4 C 16,7 C 12,8 C 90 % 1011,7 hPa 0,0 l/m 0 min 0 min 222 W/m 16,1 km/h (3 Bft) 100,00 %
30.07.2023 09:10 16,4 C 16,7 C 12,8 C 90 % 1011,7 hPa 0,0 l/m 2 min 0 min 242 W/m 19,3 km/h (3 Bft) 100,00 %
30.07.2023 09:12 16,4 C 16,7 C 13,3 C 90 % 1011,9 hPa 0,0 l/m 2 min 0 min 248 W/m 16,1 km/h (3 Bft) 100,00 %
30.07.2023 09:14 16,5 C 17,2 C 13,3 C 89 % 1011,8 hPa 0,0 l/m 2 min 0 min 236 W/m 16,1 km/h (3 Bft) 97,87 %
30.07.2023 09:16 16,6 C 17,2 C 13,3 C 90 % 1011,8 hPa 0,0 l/m 2 min 0 min 242 W/m 6,4 km/h (2 Bft) 100,00 %
30.07.2023 09:18 16,6 C 17,2 C 13,3 C 90 % 1011,9 hPa 0,0 l/m 0 min 0 min 227 W/m 19,3 km/h (3 Bft) 100,00 %
30.07.2023 09:20 16,6 C 16,7 C 13,3 C 89 % 1011,9 hPa 0,0 l/m 0 min 0 min 220 W/m 16,1 km/h (3 Bft) 97,87 %
30.07.2023 09:22 16,7 C 16,7 C 13,3 C 89 % 1011,8 hPa 0,0 l/m 0 min 0 min 224 W/m 25,7 km/h (4 Bft) 97,87 %
30.07.2023 09:24 16,7 C 16,7 C 13,3 C 89 % 1011,8 hPa 0,0 l/m 0 min 0 min 231 W/m 16,1 km/h (3 Bft) 97,87 %
30.07.2023 09:26 16,7 C 16,7 C 13,3 C 89 % 1011,8 hPa 0,0 l/m 0 min 0 min 229 W/m 25,7 km/h (4 Bft) 97,87 %
30.07.2023 09:28 16,7 C 16,7 C 13,3 C 89 % 1011,8 hPa 0,0 l/m 0 min 0 min 229 W/m 12,9 km/h (3 Bft) 97,87 %
30.07.2023 09:30 16,8 C 16,7 C 13,3 C 89 % 1011,8 hPa 0,0 l/m 0 min 0 min 222 W/m 16,1 km/h (3 Bft) 100,00 %
30.07.2023 09:32 16,8 C 16,7 C 13,3 C 89 % 1011,8 hPa 0,0 l/m 0 min 0 min 222 W/m 16,1 km/h (3 Bft) 97,83 %
30.07.2023 09:34 16,8 C 16,7 C 13,3 C 89 % 1011,8 hPa 0,0 l/m 0 min 0 min 213 W/m 16,1 km/h (3 Bft) 95,74 %
30.07.2023 09:36 16,8 C 16,7 C 13,3 C 89 % 1012,0 hPa 0,0 l/m 0 min 0 min 202 W/m 22,5 km/h (4 Bft) 95,74 %
30.07.2023 09:38 16,8 C 16,7 C 13,3 C 88 % 1011,9 hPa 0,0 l/m 0 min 0 min 196 W/m 22,5 km/h (4 Bft) 97,87 %
30.07.2023 09:40 16,9 C 16,7 C 13,3 C 88 % 1012,0 hPa 0,0 l/m 0 min 0 min 193 W/m 12,9 km/h (3 Bft) 97,87 %
30.07.2023 09:42 16,9 C 16,7 C 13,3 C 88 % 1012,0 hPa 0,0 l/m 0 min 0 min 194 W/m 12,9 km/h (3 Bft) 95,74 %
30.07.2023 09:44 16,9 C 16,7 C 13,3 C 88 % 1012,0 hPa 0,0 l/m 0 min 0 min 189 W/m 6,4 km/h (2 Bft) 93,48 %
30.07.2023 09:46 16,9 C 16,7 C 13,3 C 89 % 1012,0 hPa 0,0 l/m 0 min 0 min 196 W/m 12,9 km/h (3 Bft) 95,74 %
30.07.2023 09:48 17,0 C 16,7 C 13,3 C 89 % 1012,0 hPa 0,0 l/m 0 min 0 min 199 W/m 6,4 km/h (2 Bft) 95,74 %
30.07.2023 09:50 17,0 C 17,2 C 13,3 C 89 % 1012,0 hPa 0,0 l/m 0 min 0 min 192 W/m 12,9 km/h (3 Bft) 93,62 %
30.07.2023 09:52 17,1 C 17,2 C 13,3 C 89 % 1012,0 hPa 0,0 l/m 0 min 0 min 191 W/m 6,4 km/h (2 Bft) 91,49 %
30.07.2023 09:54 17,1 C 17,2 C 13,3 C 89 % 1012,0 hPa 0,0 l/m 0 min 0 min 194 W/m 6,4 km/h (2 Bft) 95,74 %
30.07.2023 09:56 17,1 C 17,2 C 13,3 C 89 % 1012,1 hPa 0,0 l/m 0 min 0 min 194 W/m 19,3 km/h (3 Bft) 95,65 %
30.07.2023 09:58 17,1 C 17,2 C 13,3 C 88 % 1012,1 hPa 0,0 l/m 0 min 0 min 190 W/m 19,3 km/h (3 Bft) 93,62 %
30.07.2023 10:00 17,1 C 17,2 C 13,3 C 88 % 1012,0 hPa 0,0 l/m 0 min 0 min 182 W/m 19,3 km/h (3 Bft) 93,62 %
30.07.2023 10:02 17,1 C 16,7 C 13,3 C 88 % 1012,1 hPa 0,0 l/m 0 min 0 min 160 W/m 16,1 km/h (3 Bft) 93,62 %
30.07.2023 10:04 17,1 C 16,7 C 13,3 C 88 % 1012,1 hPa 0,0 l/m 0 min 0 min 145 W/m 19,3 km/h (3 Bft) 97,30 %
30.07.2023 10:06 17,1 C 16,7 C 13,3 C 88 % 1012,1 hPa 0,0 l/m 0 min 0 min 158 W/m 19,3 km/h (3 Bft) 93,22 %
30.07.2023 10:08 17,1 C 16,7 C 13,3 C 88 % 1012,2 hPa 0,0 l/m 0 min 0 min 171 W/m 12,9 km/h (3 Bft) 100,00 %
30.07.2023 10:10 17,1 C 16,7 C 13,3 C 88 % 1012,1 hPa 0,0 l/m 0 min 0 min 183 W/m 16,1 km/h (3 Bft) 97,87 %
30.07.2023 10:12 17,1 C 16,7 C 13,3 C 88 % 1012,1 hPa 0,0 l/m 0 min 0 min 197 W/m 16,1 km/h (3 Bft) 97,83 %
30.07.2023 10:14 17,1 C 16,7 C 13,3 C 88 % 1012,2 hPa 0,0 l/m 0 min 0 min 220 W/m 16,1 km/h (3 Bft) 95,74 %
30.07.2023 10:16 17,1 C 17,2 C 13,3 C 88 % 1012,1 hPa 0,0 l/m 0 min 0 min 235 W/m 12,9 km/h (3 Bft) 100,00 %
30.07.2023 10:18 17,2 C 17,2 C 13,9 C 88 % 1012,1 hPa 0,0 l/m 0 min 0 min 234 W/m 16,1 km/h (3 Bft) 100,00 %
30.07.2023 10:20 17,2 C 17,8 C 13,9 C 88 % 1012,0 hPa 0,0 l/m 0 min 0 min 250 W/m 6,4 km/h (2 Bft) 100,00 %
30.07.2023 10:22 17,3 C 17,8 C 13,9 C 88 % 1012,1 hPa 0,0 l/m 0 min 0 min 244 W/m 12,9 km/h (3 Bft) 100,00 %
30.07.2023 10:24 17,3 C 17,8 C 13,9 C 88 % 1012,0 hPa 0,0 l/m 0 min 0 min 238 W/m 12,9 km/h (3 Bft) 100,00 %
30.07.2023 10:26 17,4 C 17,8 C 13,9 C 88 % 1012,1 hPa 0,0 l/m 0 min 0 min 223 W/m 16,1 km/h (3 Bft) 100,00 %
30.07.2023 10:28 17,4 C 17,8 C 13,9 C 87 % 1012,1 hPa 0,0 l/m 0 min 0 min 202 W/m 12,9 km/h (3 Bft) 97,87 %
30.07.2023 10:30 17,4 C 17,2 C 13,9 C 87 % 1012,2 hPa 0,0 l/m 0 min 0 min 203 W/m 22,5 km/h (4 Bft) 100,00 %
30.07.2023 10:32 17,4 C 17,2 C 13,9 C 87 % 1012,2 hPa 0,0 l/m 0 min 0 min 228 W/m 19,3 km/h (3 Bft) 100,00 %
30.07.2023 10:34 17,4 C 17,2 C 13,9 C 87 % 1012,1 hPa 0,0 l/m 0 min 0 min 235 W/m 19,3 km/h (3 Bft) 100,00 %
30.07.2023 10:36 17,4 C 17,2 C 13,9 C 87 % 1012,2 hPa 0,0 l/m 0 min 0 min 239 W/m 16,1 km/h (3 Bft) 100,00 %
30.07.2023 10:38 17,4 C 17,2 C 13,9 C 87 % 1012,2 hPa 0,0 l/m 0 min 0 min 239 W/m 22,5 km/h (4 Bft) 100,00 %
30.07.2023 10:40 17,4 C 17,2 C 13,9 C 87 % 1012,2 hPa 0,0 l/m 0 min 0 min 238 W/m 16,1 km/h (3 Bft) 100,00 %
30.07.2023 10:42 17,4 C 17,2 C 13,9 C 87 % 1012,2 hPa 0,0 l/m 0 min 0 min 234 W/m 29,0 km/h (5 Bft) 100,00 %
30.07.2023 10:44 17,4 C 17,2 C 13,9 C 87 % 1012,1 hPa 0,0 l/m 0 min 0 min 238 W/m 19,3 km/h (3 Bft) 100,00 %
30.07.2023 10:46 17,4 C 17,8 C 13,9 C 87 % 1012,2 hPa 0,0 l/m 0 min 0 min 249 W/m 12,9 km/h (3 Bft) 100,00 %
30.07.2023 10:48 17,4 C 17,8 C 13,9 C 87 % 1012,2 hPa 0,0 l/m 0 min 0 min 276 W/m 29,0 km/h (5 Bft) 100,00 %
30.07.2023 10:50 17,5 C 17,8 C 13,9 C 86 % 1012,1 hPa 0,0 l/m 0 min 0 min 318 W/m 19,3 km/h (3 Bft) 97,83 %
30.07.2023 10:52 17,6 C 17,8 C 14,4 C 86 % 1012,1 hPa 0,0 l/m 2 min 0 min 378 W/m 25,7 km/h (4 Bft) 100,00 %
30.07.2023 10:54 17,6 C 18,3 C 14,4 C 86 % 1012,1 hPa 0,0 l/m 2 min 0 min 376 W/m 12,9 km/h (3 Bft) 100,00 %
30.07.2023 10:56 17,7 C 18,3 C 14,4 C 86 % 1012,2 hPa 0,0 l/m 2 min 0 min 396 W/m 22,5 km/h (4 Bft) 97,87 %
30.07.2023 10:58 17,8 C 18,9 C 15,0 C 86 % 1012,2 hPa 0,0 l/m 2 min 0 min 483 W/m 12,9 km/h (3 Bft) 100,00 %
30.07.2023 11:00 17,9 C 18,9 C 15,0 C 85 % 1012,3 hPa 0,0 l/m 2 min 0 min 396 W/m 29,0 km/h (5 Bft) 97,87 %
30.07.2023 11:02 17,9 C 18,3 C 15,0 C 85 % 1012,3 hPa 0,0 l/m 2 min 0 min 355 W/m 16,1 km/h (3 Bft) 97,87 %
30.07.2023 11:04 18,0 C 18,3 C 15,0 C 84 % 1012,3 hPa 0,0 l/m 0 min 0 min 267 W/m 12,9 km/h (3 Bft) 100,00 %
30.07.2023 11:06 18,1 C 18,3 C 15,0 C 84 % 1012,4 hPa 0,0 l/m 0 min 0 min 297 W/m 12,9 km/h (3 Bft) 100,00 %
30.07.2023 11:08 18,1 C 18,9 C 15,0 C 84 % 1012,3 hPa 0,0 l/m 2 min 0 min 449 W/m 12,9 km/h (3 Bft) 100,00 %
30.07.2023 11:10 18,2 C 18,9 C 15,0 C 84 % 1012,3 hPa 0,0 l/m 2 min 0 min 570 W/m 22,5 km/h (4 Bft) 100,00 %
30.07.2023 11:12 18,3 C 19,4 C 15,0 C 83 % 1012,3 hPa 0,0 l/m 2 min 0 min 570 W/m 19,3 km/h (3 Bft) 93,62 %
30.07.2023 11:14 18,3 C 19,4 C 15,0 C 83 % 1012,5 hPa 0,0 l/m 2 min 0 min 570 W/m 22,5 km/h (4 Bft) 100,00 %
30.07.2023 11:16 18,4 C 19,4 C 15,0 C 83 % 1012,4 hPa 0,0 l/m 2 min 0 min 570 W/m 16,1 km/h (3 Bft) 100,00 %
30.07.2023 11:18 18,4 C 19,4 C 15,0 C 83 % 1012,5 hPa 0,0 l/m 2 min 0 min 611 W/m 29,0 km/h (5 Bft) 100,00 %
30.07.2023 11:20 18,6 C 19,4 C 15,0 C 82 % 1012,4 hPa 0,0 l/m 2 min 0 min 830 W/m 16,1 km/h (3 Bft) 97,87 %
30.07.2023 11:22 18,7 C 20,0 C 15,6 C 83 % 1012,4 hPa 0,0 l/m 2 min 0 min 851 W/m 6,4 km/h (2 Bft) 95,74 %
30.07.2023 11:24 18,8 C 20,0 C 15,6 C 83 % 1012,4 hPa 0,0 l/m 2 min 0 min 843 W/m 22,5 km/h (4 Bft) 100,00 %
30.07.2023 11:26 18,9 C 20,6 C 15,6 C 82 % 1012,4 hPa 0,0 l/m 2 min 0 min 798 W/m 12,9 km/h (3 Bft) 100,00 %
30.07.2023 11:28 19,1 C 20,0 C 15,6 C 81 % 1012,4 hPa 0,0 l/m 2 min 0 min 713 W/m 19,3 km/h (3 Bft) 97,87 %
30.07.2023 11:30 19,1 C 20,6 C 15,6 C 81 % 1012,4 hPa 0,0 l/m 2 min 0 min 685 W/m 22,5 km/h (4 Bft) 97,83 %
30.07.2023 11:32 19,2 C 21,1 C 16,1 C 81 % 1012,4 hPa 0,0 l/m 2 min 0 min 601 W/m 12,9 km/h (3 Bft) 97,87 %
30.07.2023 11:34 19,3 C 21,7 C 16,1 C 80 % 1012,5 hPa 0,0 l/m 2 min 0 min 698 W/m 25,7 km/h (4 Bft) 97,87 %
30.07.2023 11:36 19,4 C 22,8 C 16,1 C 79 % 1012,4 hPa 0,0 l/m 2 min 0 min 856 W/m 22,5 km/h (4 Bft) 95,74 %
30.07.2023 11:38 19,5 C 21,7 C 16,1 C 80 % 1012,4 hPa 0,0 l/m 2 min 0 min 898 W/m 12,9 km/h (3 Bft) 95,74 %
30.07.2023 11:40 19,6 C 23,3 C 16,7 C 79 % 1012,4 hPa 0,0 l/m 2 min 0 min 881 W/m 16,1 km/h (3 Bft) 97,87 %
30.07.2023 11:42 19,7 C 22,2 C 16,7 C 79 % 1012,4 hPa 0,0 l/m 2 min 0 min 891 W/m 16,1 km/h (3 Bft) 97,87 %
30.07.2023 11:44 19,8 C 21,7 C 16,1 C 78 % 1012,2 hPa 0,0 l/m 2 min 0 min 522 W/m 12,9 km/h (3 Bft) 95,65 %
30.07.2023 11:46 19,8 C 21,1 C 16,1 C 78 % 1012,2 hPa 0,0 l/m 0 min 0 min 265 W/m 9,7 km/h (2 Bft) 97,87 %
30.07.2023 11:48 19,7 C 22,2 C 16,1 C 77 % 1012,3 hPa 0,0 l/m 0 min 0 min 316 W/m 12,9 km/h (3 Bft) 95,74 %
30.07.2023 11:50 19,8 C 23,3 C 17,2 C 78 % 1012,4 hPa 0,0 l/m 2 min 0 min 949 W/m 25,7 km/h (4 Bft) 95,74 %
30.07.2023 11:52 19,9 C 22,8 C 17,2 C 77 % 1012,4 hPa 0,0 l/m 2 min 0 min 933 W/m 16,1 km/h (3 Bft) 95,74 %
30.07.2023 11:54 20,1 C 22,2 C 17,2 C 77 % 1012,4 hPa 0,0 l/m 2 min 0 min 568 W/m 6,4 km/h (2 Bft) 95,74 %
30.07.2023 11:56 20,2 C 22,2 C 17,2 C 78 % 1012,4 hPa 0,0 l/m 2 min 0 min 513 W/m 6,4 km/h (2 Bft) 91,30 %
30.07.2023 11:58 20,3 C 22,8 C 17,2 C 78 % 1012,4 hPa 0,0 l/m 2 min 0 min 595 W/m 6,4 km/h (2 Bft) 89,36 %
30.07.2023 12:00 20,4 C 22,2 C 17,8 C 77 % 1012,4 hPa 0,0 l/m 2 min 0 min 622 W/m 19,3 km/h (3 Bft) 93,62 %
30.07.2023 12:02 20,3 C 21,1 C 17,2 C 75 % 1012,4 hPa 0,0 l/m 0 min 0 min 335 W/m 29,0 km/h (5 Bft) 93,62 %
30.07.2023 12:04 20,3 C 21,1 C 17,2 C 75 % 1012,3 hPa 0,0 l/m 2 min 0 min 402 W/m 19,3 km/h (3 Bft) 93,75 %
30.07.2023 12:07 20,4 C 21,1 C 17,2 C 74 % 1012,3 hPa 0,0 l/m 3 min 0 min 390 W/m 16,1 km/h (3 Bft) 93,75 %
30.07.2023 12:08 20,4 C 21,1 C 17,2 C 75 % 1012,3 hPa 0,0 l/m 1 min 0 min 417 W/m 16,1 km/h (3 Bft) 94,74 %
30.07.2023 12:12 20,4 C 20,6 C 16,7 C 74 % 1012,3 hPa 0,0 l/m 0 min 0 min 285 W/m 16,1 km/h (3 Bft) 91,30 %
30.07.2023 12:14 20,3 C 20,6 C 16,7 C 74 % 1012,3 hPa 0,0 l/m 0 min 0 min 322 W/m 12,9 km/h (3 Bft) 93,62 %
30.07.2023 12:16 20,3 C 20,6 C 16,7 C 74 % 1012,4 hPa 0,0 l/m 0 min 0 min 385 W/m 22,5 km/h (4 Bft) 93,62 %
30.07.2023 12:18 20,2 C 20,6 C 16,7 C 73 % 1012,4 hPa 0,0 l/m 0 min 0 min 388 W/m 19,3 km/h (3 Bft) 93,62 %
30.07.2023 12:20 20,3 C 22,2 C 17,8 C 74 % 1012,4 hPa 0,0 l/m 2 min 0 min 519 W/m 16,1 km/h (3 Bft) 91,49 %
30.07.2023 12:22 20,3 C 23,3 C 18,9 C 73 % 1012,3 hPa 0,0 l/m 2 min 0 min 699 W/m 19,3 km/h (3 Bft) 95,65 %
30.07.2023 12:24 20,5 C 24,4 C 20,6 C 73 % 1012,3 hPa 0,0 l/m 2 min 0 min 1014 W/m 12,9 km/h (3 Bft) 95,74 %
30.07.2023 12:26 20,7 C 25,6 C 21,7 C 73 % 1012,2 hPa 0,0 l/m 2 min 0 min 964 W/m 12,9 km/h (3 Bft) 95,74 %
30.07.2023 12:28 20,9 C 26,1 C 22,8 C 73 % 1012,3 hPa 0,0 l/m 2 min 0 min 940 W/m 16,1 km/h (3 Bft) 93,62 %
30.07.2023 12:30 21,1 C 26,1 C 22,8 C 71 % 1012,3 hPa 0,0 l/m 2 min 0 min 1017 W/m 19,3 km/h (3 Bft) 93,62 %
30.07.2023 12:32 21,2 C 24,4 C 21,7 C 71 % 1012,3 hPa 0,0 l/m 2 min 0 min 1049 W/m 12,9 km/h (3 Bft) 97,87 %
30.07.2023 12:34 21,3 C 23,3 C 20,6 C 72 % 1012,3 hPa 0,0 l/m 2 min 0 min 801 W/m 12,9 km/h (3 Bft) 97,87 %
30.07.2023 12:36 21,3 C 22,8 C 20,0 C 71 % 1012,2 hPa 0,0 l/m 0 min 0 min 261 W/m 16,1 km/h (3 Bft) 97,83 %
30.07.2023 12:38 21,3 C 21,7 C 18,9 C 71 % 1012,3 hPa 0,0 l/m 0 min 0 min 243 W/m 38,6 km/h (5 Bft) 100,00 %
30.07.2023 12:40 21,2 C 21,1 C 18,3 C 70 % 1012,3 hPa 0,0 l/m 0 min 0 min 204 W/m 19,3 km/h (3 Bft) 100,00 %
30.07.2023 12:42 21,1 C 20,6 C 17,8 C 69 % 1012,3 hPa 0,0 l/m 0 min 0 min 209 W/m 16,1 km/h (3 Bft) 100,00 %
30.07.2023 12:44 21,1 C 20,6 C 17,2 C 70 % 1012,3 hPa 0,0 l/m 0 min 0 min 238 W/m 19,3 km/h (3 Bft) 97,87 %
30.07.2023 12:46 20,9 C 20,6 C 17,2 C 70 % 1012,4 hPa 0,0 l/m 0 min 0 min 201 W/m 16,1 km/h (3 Bft) 100,00 %
30.07.2023 12:48 20,8 C 20,0 C 16,7 C 70 % 1012,5 hPa 0,0 l/m 0 min 0 min 192 W/m 22,5 km/h (4 Bft) 100,00 %
30.07.2023 12:50 20,7 C 20,0 C 16,7 C 71 % 1012,4 hPa 0,0 l/m 0 min 2 min 226 W/m 29,0 km/h (5 Bft) 100,00 %
30.07.2023 12:52 20,6 C 21,1 C 16,7 C 72 % 1012,4 hPa 0,0 l/m 0 min 0 min 285 W/m 19,3 km/h (3 Bft) 97,87 %
30.07.2023 12:54 20,6 C 22,2 C 16,7 C 72 % 1012,4 hPa 0,0 l/m 0 min 0 min 285 W/m 22,5 km/h (4 Bft) 100,00 %
30.07.2023 12:56 20,6 C 21,7 C 16,7 C 72 % 1012,5 hPa 0,0 l/m 2 min 0 min 402 W/m 29,0 km/h (5 Bft) 100,00 %
30.07.2023 12:58 20,6 C 21,1 C 16,7 C 71 % 1012,6 hPa 0,0 l/m 2 min 0 min 407 W/m 22,5 km/h (4 Bft) 100,00 %
30.07.2023 13:00 20,6 C 21,1 C 16,7 C 71 % 1012,4 hPa 0,0 l/m 0 min 0 min 375 W/m 19,3 km/h (3 Bft) 100,00 %
30.07.2023 13:02 20,6 C 21,1 C 17,2 C 72 % 1012,5 hPa 0,0 l/m 0 min 0 min 401 W/m 19,3 km/h (3 Bft) 100,00 %
30.07.2023 13:04 20,6 C 21,7 C 17,2 C 72 % 1012,4 hPa 0,0 l/m 2 min 0 min 413 W/m 16,1 km/h (3 Bft) 100,00 %
30.07.2023 13:06 20,7 C 22,2 C 17,2 C 71 % 1012,4 hPa 0,0 l/m 2 min 0 min 520 W/m 25,7 km/h (4 Bft) 100,00 %
30.07.2023 13:08 20,8 C 22,8 C 17,2 C 71 % 1012,5 hPa 0,0 l/m 2 min 0 min 732 W/m 16,1 km/h (3 Bft) 100,00 %
30.07.2023 13:10 21,0 C 22,8 C 17,2 C 71 % 1012,5 hPa 0,0 l/m 2 min 0 min 832 W/m 25,7 km/h (4 Bft) 100,00 %
30.07.2023 13:12 21,2 C 23,9 C 17,8 C 71 % 1012,6 hPa 0,0 l/m 2 min 0 min 1119 W/m 25,7 km/h (4 Bft) 100,00 %
30.07.2023 13:14 21,4 C 23,9 C 17,8 C 71 % 1012,5 hPa 0,0 l/m 2 min 0 min 1093 W/m 25,7 km/h (4 Bft) 100,00 %
30.07.2023 13:16 21,5 C 23,3 C 17,8 C 70 % 1012,7 hPa 0,0 l/m 2 min 0 min 1106 W/m 22,5 km/h (4 Bft) 100,00 %
30.07.2023 13:18 21,5 C 22,2 C 17,8 C 69 % 1012,6 hPa 0,0 l/m 2 min 0 min 1106 W/m 38,6 km/h (5 Bft) 100,00 %
30.07.2023 13:20 21,5 C 22,2 C 17,2 C 70 % 1012,6 hPa 0,0 l/m 2 min 0 min 409 W/m 19,3 km/h (3 Bft) 100,00 %
30.07.2023 13:22 21,5 C 22,2 C 17,8 C 71 % 1012,6 hPa 0,0 l/m 2 min 0 min 419 W/m 12,9 km/h (3 Bft) 100,00 %
30.07.2023 13:24 21,6 C 22,2 C 17,8 C 71 % 1012,6 hPa 0,0 l/m 0 min 0 min 356 W/m 12,9 km/h (3 Bft) 97,87 %
30.07.2023 13:26 21,6 C 22,2 C 17,8 C 71 % 1012,6 hPa 0,0 l/m 0 min 0 min 326 W/m 19,3 km/h (3 Bft) 100,00 %
30.07.2023 13:28 21,5 C 21,7 C 17,8 C 69 % 1012,6 hPa 0,0 l/m 0 min 0 min 307 W/m 32,2 km/h (5 Bft) 97,87 %
30.07.2023 13:30 21,4 C 21,1 C 17,2 C 70 % 1012,8 hPa 0,0 l/m 0 min 0 min 270 W/m 22,5 km/h (4 Bft) 97,87 %
30.07.2023 13:32 21,3 C 20,6 C 17,2 C 70 % 1012,7 hPa 0,0 l/m 0 min 0 min 176 W/m 22,5 km/h (4 Bft) 95,65 %
30.07.2023 13:34 21,2 C 20,6 C 16,7 C 71 % 1012,7 hPa 0,0 l/m 0 min 0 min 219 W/m 19,3 km/h (3 Bft) 100,00 %
30.07.2023 13:36 21,1 C 21,7 C 17,2 C 73 % 1012,7 hPa 0,0 l/m 0 min 0 min 292 W/m 12,9 km/h (3 Bft) 95,74 %
30.07.2023 13:38 21,1 C 21,7 C 17,2 C 73 % 1012,7 hPa 0,0 l/m 0 min 0 min 361 W/m 19,3 km/h (3 Bft) 100,00 %
30.07.2023 13:40 21,1 C 22,2 C 17,2 C 73 % 1012,6 hPa 0,0 l/m 2 min 0 min 420 W/m 22,5 km/h (4 Bft) 100,00 %
30.07.2023 13:42 21,2 C 23,3 C 17,2 C 73 % 1012,8 hPa 0,0 l/m 2 min 0 min 852 W/m 16,1 km/h (3 Bft) 100,00 %
30.07.2023 13:44 21,2 C 22,2 C 17,2 C 71 % 1012,7 hPa 0,0 l/m 2 min 0 min 424 W/m 22,5 km/h (4 Bft) 100,00 %
30.07.2023 13:46 21,2 C 21,7 C 17,2 C 71 % 1012,7 hPa 0,0 l/m 0 min 0 min 357 W/m 29,0 km/h (5 Bft) 100,00 %
30.07.2023 13:48 21,2 C 21,7 C 17,2 C 71 % 1012,8 hPa 0,0 l/m 0 min 0 min 366 W/m 19,3 km/h (3 Bft) 97,87 %
30.07.2023 13:50 21,2 C 21,7 C 17,2 C 71 % 1012,8 hPa 0,0 l/m 0 min 0 min 386 W/m 22,5 km/h (4 Bft) 100,00 %
30.07.2023 13:52 21,1 C 21,7 C 17,2 C 71 % 1012,9 hPa 0,0 l/m 0 min 0 min 401 W/m 35,4 km/h (5 Bft) 100,00 %
30.07.2023 13:54 21,1 C 21,7 C 17,2 C 71 % 1012,9 hPa 0,0 l/m 2 min 0 min 431 W/m 29,0 km/h (5 Bft) 97,87 %
30.07.2023 13:56 21,1 C 22,2 C 17,2 C 71 % 1012,9 hPa 0,0 l/m 2 min 0 min 480 W/m 16,1 km/h (3 Bft) 93,48 %
30.07.2023 13:58 21,1 C 22,8 C 17,2 C 71 % 1013,0 hPa 0,0 l/m 2 min 0 min 461 W/m 22,5 km/h (4 Bft) 97,87 %
30.07.2023 14:00 21,1 C 21,7 C 17,2 C 71 % 1012,9 hPa 0,0 l/m 0 min 0 min 396 W/m 25,7 km/h (4 Bft) 97,87 %
30.07.2023 14:02 21,1 C 21,1 C 17,2 C 71 % 1013,0 hPa 0,0 l/m 0 min 0 min 329 W/m 22,5 km/h (4 Bft) 97,87 %
30.07.2023 14:04 21,1 C 21,1 C 17,2 C 71 % 1013,0 hPa 0,0 l/m 0 min 0 min 332 W/m 16,1 km/h (3 Bft) 98,00 %
30.07.2023 14:06 21,0 C 21,1 C 17,2 C 70 % 1013,2 hPa 0,0 l/m 0 min 0 min 316 W/m 22,5 km/h (4 Bft) 98,28 %
30.07.2023 14:08 20,9 C 20,6 C 16,7 C 70 % 1013,1 hPa 0,0 l/m 0 min 0 min 279 W/m 22,5 km/h (4 Bft) 94,44 %
30.07.2023 14:10 20,8 C 20,6 C 16,7 C 70 % 1013,2 hPa 0,0 l/m 0 min 0 min 253 W/m 19,3 km/h (3 Bft) 97,83 %
30.07.2023 14:12 20,8 C 20,6 C 16,7 C 70 % 1013,2 hPa 0,0 l/m 0 min 0 min 270 W/m 16,1 km/h (3 Bft) 97,87 %
30.07.2023 14:14 20,7 C 20,0 C 16,7 C 70 % 1013,2 hPa 0,0 l/m 0 min 0 min 280 W/m 19,3 km/h (3 Bft) 97,87 %
30.07.2023 14:16 20,5 C 20,0 C 16,1 C 70 % 1013,2 hPa 0,0 l/m 0 min 0 min 291 W/m 16,1 km/h (3 Bft) 97,87 %
30.07.2023 14:18 20,4 C 20,0 C 16,7 C 70 % 1013,1 hPa 0,0 l/m 0 min 0 min 338 W/m 12,9 km/h (3 Bft) 97,87 %
30.07.2023 14:20 20,4 C 21,1 C 16,7 C 70 % 1013,2 hPa 0,0 l/m 0 min 0 min 390 W/m 22,5 km/h (4 Bft) 97,87 %
30.07.2023 14:22 20,4 C 21,1 C 16,7 C 70 % 1013,2 hPa 0,0 l/m 0 min 0 min 364 W/m 16,1 km/h (3 Bft) 97,87 %
30.07.2023 14:24 20,4 C 20,6 C 16,7 C 70 % 1013,1 hPa 0,0 l/m 0 min 0 min 354 W/m 22,5 km/h (4 Bft) 95,65 %
30.07.2023 14:26 20,4 C 20,6 C 16,7 C 70 % 1013,1 hPa 0,0 l/m 0 min 0 min 386 W/m 16,1 km/h (3 Bft) 95,74 %
30.07.2023 14:28 20,4 C 21,1 C 16,7 C 70 % 1013,1 hPa 0,0 l/m 2 min 0 min 409 W/m 35,4 km/h (5 Bft) 97,87 %
30.07.2023 14:30 20,4 C 21,7 C 16,7 C 70 % 1013,1 hPa 0,0 l/m 2 min 0 min 452 W/m 25,7 km/h (4 Bft) 95,74 %
30.07.2023 14:32 20,4 C 22,2 C 16,7 C 71 % 1013,0 hPa 0,0 l/m 2 min 0 min 443 W/m 22,5 km/h (4 Bft) 95,74 %
30.07.2023 14:34 20,5 C 21,1 C 16,7 C 70 % 1013,3 hPa 0,0 l/m 0 min 0 min 384 W/m 22,5 km/h (4 Bft) 95,74 %
30.07.2023 14:36 20,5 C 21,7 C 16,7 C 71 % 1013,0 hPa 0,0 l/m 0 min 0 min 297 W/m 22,5 km/h (4 Bft) 97,83 %
30.07.2023 14:38 20,5 C 22,2 C 16,7 C 71 % 1013,0 hPa 0,0 l/m 0 min 0 min 297 W/m 25,7 km/h (4 Bft) 95,74 %
30.07.2023 14:40 20,5 C 23,3 C 16,7 C 71 % 1012,9 hPa 0,0 l/m 2 min 0 min 398 W/m 19,3 km/h (3 Bft) 97,87 %
30.07.2023 14:42 20,7 C 25,0 C 16,7 C 72 % 1013,0 hPa 0,0 l/m 2 min 0 min 713 W/m 16,1 km/h (3 Bft) 97,87 %
30.07.2023 14:44 20,8 C 26,1 C 16,7 C 70 % 1013,0 hPa 0,0 l/m 2 min 0 min 935 W/m 25,7 km/h (4 Bft) 97,87 %
30.07.2023 14:46 20,9 C 25,0 C 16,7 C 69 % 1012,9 hPa 0,0 l/m 2 min 0 min 768 W/m 29,0 km/h (5 Bft) 97,87 %
30.07.2023 14:48 20,9 C 23,3 C 16,7 C 69 % 1012,9 hPa 0,0 l/m 2 min 0 min 629 W/m 29,0 km/h (5 Bft) 97,83 %
30.07.2023 14:50 20,8 C 22,8 C 16,7 C 67 % 1012,8 hPa 0,0 l/m 2 min 0 min 629 W/m 19,3 km/h (3 Bft) 95,74 %
30.07.2023 14:52 20,8 C 24,4 C 16,7 C 67 % 1012,9 hPa 0,0 l/m 2 min 0 min 781 W/m 22,5 km/h (4 Bft) 95,74 %
30.07.2023 14:54 20,9 C 25,6 C 16,7 C 68 % 1013,0 hPa 0,0 l/m 2 min 0 min 970 W/m 16,1 km/h (3 Bft) 95,74 %
30.07.2023 14:56 21,0 C 25,0 C 16,7 C 68 % 1013,0 hPa 0,0 l/m 2 min 0 min 946 W/m 29,0 km/h (5 Bft) 97,87 %
30.07.2023 14:58 21,1 C 26,1 C 16,7 C 68 % 1013,0 hPa 0,0 l/m 2 min 0 min 893 W/m 29,0 km/h (5 Bft) 95,74 %
30.07.2023 15:00 21,2 C 26,1 C 16,7 C 68 % 1013,0 hPa 0,0 l/m 2 min 0 min 854 W/m 29,0 km/h (5 Bft) 97,87 %
30.07.2023 15:02 21,2 C 25,6 C 16,7 C 67 % 1013,0 hPa 0,0 l/m 2 min 0 min 863 W/m 22,5 km/h (4 Bft) 97,83 %
30.07.2023 15:04 21,3 C 26,1 C 16,7 C 67 % 1013,0 hPa 0,0 l/m 2 min 0 min 857 W/m 22,5 km/h (4 Bft) 95,83 %
30.07.2023 15:06 21,5 C 26,7 C 17,2 C 66 % 1013,0 hPa 0,0 l/m 2 min 0 min 852 W/m 22,5 km/h (4 Bft) 98,31 %
30.07.2023 15:08 21,6 C 26,7 C 17,2 C 67 % 1013,0 hPa 0,0 l/m 2 min 0 min 850 W/m 19,3 km/h (3 Bft) 100,00 %
30.07.2023 15:10 21,6 C 25,6 C 17,2 C 66 % 1013,0 hPa 0,0 l/m 2 min 0 min 852 W/m 25,7 km/h (4 Bft) 97,87 %
30.07.2023 15:12 21,7 C 26,1 C 17,2 C 66 % 1013,0 hPa 0,0 l/m 2 min 0 min 849 W/m 16,1 km/h (3 Bft) 100,00 %
30.07.2023 15:14 21,8 C 26,7 C 17,2 C 66 % 1013,0 hPa 0,0 l/m 2 min 0 min 847 W/m 22,5 km/h (4 Bft) 97,87 %
30.07.2023 15:16 21,9 C 27,2 C 17,2 C 67 % 1013,0 hPa 0,0 l/m 2 min 0 min 845 W/m 22,5 km/h (4 Bft) 97,83 %
30.07.2023 15:18 22,1 C 26,7 C 17,2 C 66 % 1013,1 hPa 0,0 l/m 2 min 0 min 843 W/m 29,0 km/h (5 Bft) 100,00 %
30.07.2023 15:20 22,0 C 26,1 C 17,2 C 65 % 1013,1 hPa 0,0 l/m 2 min 0 min 832 W/m 19,3 km/h (3 Bft) 97,87 %
30.07.2023 15:22 22,1 C 26,1 C 17,2 C 66 % 1013,1 hPa 0,0 l/m 2 min 0 min 829 W/m 25,7 km/h (4 Bft) 95,74 %
30.07.2023 15:24 22,1 C 26,1 C 17,2 C 65 % 1013,2 hPa 0,0 l/m 2 min 0 min 838 W/m 19,3 km/h (3 Bft) 95,74 %
30.07.2023 15:26 22,2 C 26,1 C 17,2 C 67 % 1013,2 hPa 0,0 l/m 2 min 0 min 847 W/m 16,1 km/h (3 Bft) 97,87 %
30.07.2023 15:28 22,3 C 27,2 C 17,8 C 67 % 1013,2 hPa 0,0 l/m 2 min 0 min 846 W/m 12,9 km/h (3 Bft) 97,83 %
30.07.2023 15:30 22,4 C 25,6 C 17,8 C 67 % 1013,2 hPa 0,0 l/m 2 min 0 min 867 W/m 29,0 km/h (5 Bft) 95,74 %
30.07.2023 15:32 22,4 C 25,6 C 17,8 C 66 % 1013,2 hPa 0,0 l/m 2 min 0 min 867 W/m 16,1 km/h (3 Bft) 97,87 %
30.07.2023 15:34 22,3 C 23,9 C 17,2 C 66 % 1013,2 hPa 0,0 l/m 2 min 0 min 540 W/m 19,3 km/h (3 Bft) 97,87 %
30.07.2023 15:36 22,2 C 22,2 C 17,2 C 66 % 1013,3 hPa 0,0 l/m 0 min 0 min 271 W/m 25,7 km/h (4 Bft) 97,87 %
30.07.2023 15:38 21,9 C 22,2 C 17,2 C 66 % 1013,3 hPa 0,0 l/m 0 min 0 min 343 W/m 25,7 km/h (4 Bft) 97,87 %
30.07.2023 15:40 21,8 C 22,2 C 17,2 C 67 % 1013,2 hPa 0,0 l/m 0 min 0 min 348 W/m 22,5 km/h (4 Bft) 95,74 %
30.07.2023 15:42 21,7 C 21,7 C 17,2 C 68 % 1013,1 hPa 0,0 l/m 0 min 0 min 298 W/m 29,0 km/h (5 Bft) 95,74 %
30.07.2023 15:44 21,6 C 21,1 C 17,2 C 67 % 1013,2 hPa 0,0 l/m 0 min 0 min 255 W/m 25,7 km/h (4 Bft) 95,65 %
30.07.2023 15:46 21,6 C 21,1 C 17,2 C 68 % 1013,3 hPa 0,0 l/m 0 min 0 min 232 W/m 19,3 km/h (3 Bft) 95,74 %
30.07.2023 15:48 21,4 C 21,1 C 17,2 C 68 % 1013,1 hPa 0,0 l/m 0 min 0 min 259 W/m 16,1 km/h (3 Bft) 97,87 %
30.07.2023 15:50 21,4 C 21,7 C 17,2 C 69 % 1013,0 hPa 0,0 l/m 0 min 0 min 304 W/m 22,5 km/h (4 Bft) 95,74 %
30.07.2023 15:52 21,5 C 21,7 C 17,2 C 70 % 1013,1 hPa 0,0 l/m 0 min 0 min 337 W/m 12,9 km/h (3 Bft) 97,87 %
30.07.2023 15:54 21,6 C 23,9 C 17,8 C 70 % 1013,0 hPa 0,0 l/m 2 min 0 min 531 W/m 16,1 km/h (3 Bft) 95,74 %
30.07.2023 15:56 21,7 C 25,0 C 17,8 C 70 % 1013,1 hPa 0,0 l/m 2 min 0 min 990 W/m 12,9 km/h (3 Bft) 95,65 %
30.07.2023 15:58 22,0 C 25,6 C 17,8 C 68 % 1013,0 hPa 0,0 l/m 2 min 0 min 950 W/m 19,3 km/h (3 Bft) 95,74 %
30.07.2023 16:00 22,2 C 25,6 C 17,8 C 66 % 1013,1 hPa 0,0 l/m 2 min 0 min 877 W/m 19,3 km/h (3 Bft) 93,62 %
30.07.2023 16:02 22,3 C 25,6 C 17,8 C 67 % 1013,0 hPa 0,0 l/m 2 min 0 min 911 W/m 22,5 km/h (4 Bft) 95,74 %
30.07.2023 16:04 22,4 C 24,4 C 17,8 C 66 % 1013,0 hPa 0,0 l/m 2 min 0 min 911 W/m 16,1 km/h (3 Bft) 93,62 %
30.07.2023 16:06 22,4 C 23,9 C 17,8 C 67 % 1013,1 hPa 0,0 l/m 2 min 0 min 462 W/m 16,1 km/h (3 Bft) 94,83 %
30.07.2023 16:08 22,4 C 25,0 C 17,8 C 66 % 1013,0 hPa 0,0 l/m 2 min 0 min 950 W/m 22,5 km/h (4 Bft) 94,44 %
30.07.2023 16:10 22,6 C 23,9 C 17,8 C 66 % 1013,0 hPa 0,0 l/m 2 min 0 min 825 W/m 19,3 km/h (3 Bft) 95,65 %
30.07.2023 16:12 22,5 C 23,9 C 17,8 C 65 % 1013,1 hPa 0,0 l/m 0 min 0 min 321 W/m 25,7 km/h (4 Bft) 95,74 %
30.07.2023 16:14 22,6 C 24,4 C 17,8 C 66 % 1013,3 hPa 0,0 l/m 0 min 0 min 325 W/m 25,7 km/h (4 Bft) 95,74 %
30.07.2023 16:16 22,5 C 25,0 C 17,8 C 66 % 1013,1 hPa 0,0 l/m 2 min 0 min 870 W/m 25,7 km/h (4 Bft) 95,74 %
30.07.2023 16:18 22,6 C 24,4 C 17,8 C 66 % 1013,0 hPa 0,0 l/m 2 min 0 min 866 W/m 19,3 km/h (3 Bft) 97,87 %
30.07.2023 16:20 22,6 C 23,3 C 17,8 C 66 % 1013,0 hPa 0,0 l/m 0 min 0 min 305 W/m 16,1 km/h (3 Bft) 97,87 %
30.07.2023 16:22 22,6 C 22,8 C 17,8 C 66 % 1013,0 hPa 0,0 l/m 0 min 0 min 226 W/m 25,7 km/h (4 Bft) 97,83 %
30.07.2023 16:24 22,4 C 22,2 C 17,8 C 66 % 1013,1 hPa 0,0 l/m 0 min 0 min 257 W/m 16,1 km/h (3 Bft) 97,87 %
30.07.2023 16:26 22,4 C 21,7 C 17,8 C 66 % 1013,0 hPa 0,0 l/m 0 min 0 min 219 W/m 19,3 km/h (3 Bft) 97,87 %
30.07.2023 16:28 22,3 C 22,2 C 17,8 C 67 % 1013,0 hPa 0,0 l/m 0 min 0 min 244 W/m 12,9 km/h (3 Bft) 97,87 %
30.07.2023 16:30 22,3 C 22,2 C 17,8 C 67 % 1012,9 hPa 0,0 l/m 0 min 0 min 323 W/m 12,9 km/h (3 Bft) 97,87 %
30.07.2023 16:32 22,3 C 22,2 C 17,8 C 66 % 1013,0 hPa 0,0 l/m 0 min 0 min 246 W/m 22,5 km/h (4 Bft) 97,87 %
30.07.2023 16:34 22,2 C 22,2 C 17,8 C 66 % 1012,9 hPa 0,0 l/m 0 min 0 min 197 W/m 12,9 km/h (3 Bft) 100,00 %
30.07.2023 16:36 22,2 C 21,7 C 17,8 C 66 % 1012,9 hPa 0,0 l/m 0 min 0 min 164 W/m 16,1 km/h (3 Bft) 100,00 %
30.07.2023 16:38 22,1 C 21,7 C 17,8 C 66 % 1012,9 hPa 0,0 l/m 0 min 0 min 134 W/m 19,3 km/h (3 Bft) 100,00 %
30.07.2023 16:40 22,1 C 21,7 C 17,2 C 66 % 1012,9 hPa 0,0 l/m 0 min 0 min 184 W/m 16,1 km/h (3 Bft) 100,00 %
30.07.2023 16:42 22,0 C 21,7 C 17,8 C 66 % 1012,9 hPa 0,0 l/m 0 min 0 min 259 W/m 19,3 km/h (3 Bft) 100,00 %
30.07.2023 16:44 22,0 C 22,8 C 17,8 C 65 % 1012,9 hPa 0,0 l/m 0 min 0 min 306 W/m 22,5 km/h (4 Bft) 100,00 %
30.07.2023 16:46 22,1 C 23,9 C 17,8 C 64 % 1012,9 hPa 0,0 l/m 0 min 0 min 311 W/m 16,1 km/h (3 Bft) 100,00 %
30.07.2023 16:48 22,2 C 25,0 C 18,3 C 65 % 1013,0 hPa 0,0 l/m 0 min 0 min 311 W/m 19,3 km/h (3 Bft) 100,00 %
30.07.2023 16:50 22,4 C 24,4 C 18,3 C 64 % 1012,9 hPa 0,0 l/m 2 min 0 min 754 W/m 19,3 km/h (3 Bft) 100,00 %
30.07.2023 16:52 22,6 C 24,4 C 18,3 C 64 % 1012,9 hPa 0,0 l/m 2 min 0 min 784 W/m 12,9 km/h (3 Bft) 97,87 %
30.07.2023 16:54 22,7 C 24,4 C 18,3 C 63 % 1012,9 hPa 0,0 l/m 2 min 0 min 784 W/m 19,3 km/h (3 Bft) 97,87 %
30.07.2023 16:56 22,7 C 25,0 C 18,3 C 63 % 1012,9 hPa 0,0 l/m 2 min 0 min 764 W/m 29,0 km/h (5 Bft) 97,87 %
30.07.2023 16:58 22,8 C 24,4 C 18,3 C 63 % 1013,0 hPa 0,0 l/m 2 min 0 min 513 W/m 25,7 km/h (4 Bft) 95,74 %
30.07.2023 17:00 22,8 C 23,9 C 18,3 C 62 % 1013,0 hPa 0,0 l/m 0 min 0 min 244 W/m 16,1 km/h (3 Bft) 97,87 %
30.07.2023 17:02 22,9 C 24,4 C 18,3 C 62 % 1012,9 hPa 0,0 l/m 2 min 0 min 646 W/m 16,1 km/h (3 Bft) 97,83 %
30.07.2023 17:04 22,9 C 24,4 C 18,3 C 62 % 1012,8 hPa 0,0 l/m 2 min 0 min 557 W/m 19,3 km/h (3 Bft) 97,67 %
30.07.2023 17:06 22,9 C 23,9 C 18,3 C 62 % 1012,9 hPa 0,0 l/m 0 min 0 min 250 W/m 19,3 km/h (3 Bft) 96,61 %
30.07.2023 17:08 22,9 C 23,3 C 18,3 C 61 % 1013,0 hPa 0,0 l/m 0 min 0 min 219 W/m 19,3 km/h (3 Bft) 100,00 %
30.07.2023 17:10 22,8 C 22,8 C 18,3 C 61 % 1012,7 hPa 0,0 l/m 0 min 0 min 207 W/m 25,7 km/h (4 Bft) 96,36 %
30.07.2023 17:12 22,7 C 22,8 C 18,3 C 62 % 1012,8 hPa 0,0 l/m 0 min 0 min 203 W/m 12,9 km/h (3 Bft) 95,74 %
30.07.2023 17:14 22,7 C 22,8 C 18,3 C 62 % 1012,9 hPa 0,0 l/m 0 min 0 min 205 W/m 22,5 km/h (4 Bft) 97,83 %
30.07.2023 17:16 22,6 C 22,2 C 18,3 C 61 % 1012,8 hPa 0,0 l/m 0 min 0 min 197 W/m 16,1 km/h (3 Bft) 95,74 %
30.07.2023 17:18 22,6 C 22,2 C 18,3 C 62 % 1012,8 hPa 0,0 l/m 0 min 0 min 200 W/m 12,9 km/h (3 Bft) 97,87 %
30.07.2023 17:20 22,6 C 23,3 C 18,3 C 63 % 1012,8 hPa 0,0 l/m 2 min 0 min 339 W/m 16,1 km/h (3 Bft) 97,87 %
30.07.2023 17:22 22,6 C 23,9 C 18,3 C 63 % 1012,8 hPa 0,0 l/m 2 min 0 min 499 W/m 19,3 km/h (3 Bft) 95,74 %
30.07.2023 17:24 22,7 C 23,9 C 18,3 C 62 % 1012,7 hPa 0,0 l/m 2 min 0 min 415 W/m 22,5 km/h (4 Bft) 95,74 %
30.07.2023 17:26 22,7 C 23,3 C 18,3 C 62 % 1012,8 hPa 0,0 l/m 2 min 0 min 327 W/m 19,3 km/h (3 Bft) 97,83 %
30.07.2023 17:28 22,7 C 23,9 C 18,3 C 62 % 1012,7 hPa 0,0 l/m 2 min 0 min 332 W/m 19,3 km/h (3 Bft) 97,87 %
30.07.2023 17:30 22,7 C 23,9 C 18,3 C 62 % 1012,7 hPa 0,0 l/m 2 min 0 min 329 W/m 25,7 km/h (4 Bft) 97,87 %
30.07.2023 17:32 22,8 C 23,9 C 18,3 C 62 % 1012,9 hPa 0,0 l/m 2 min 0 min 329 W/m 16,1 km/h (3 Bft) 95,74 %
30.07.2023 17:34 22,8 C 23,3 C 18,3 C 61 % 1012,7 hPa 0,0 l/m 2 min 0 min 276 W/m 22,5 km/h (4 Bft) 97,87 %
30.07.2023 17:36 22,8 C 22,8 C 18,3 C 61 % 1012,8 hPa 0,0 l/m 0 min 0 min 237 W/m 19,3 km/h (3 Bft) 100,00 %
30.07.2023 17:38 22,7 C 23,3 C 18,3 C 61 % 1012,7 hPa 0,0 l/m 2 min 0 min 306 W/m 22,5 km/h (4 Bft) 100,00 %
30.07.2023 17:40 22,7 C 23,9 C 18,3 C 60 % 1012,7 hPa 0,0 l/m 2 min 0 min 329 W/m 25,7 km/h (4 Bft) 100,00 %
30.07.2023 17:42 22,7 C 25,0 C 18,3 C 61 % 1012,8 hPa 0,0 l/m 2 min 0 min 424 W/m 19,3 km/h (3 Bft) 100,00 %
30.07.2023 17:44 22,8 C 25,6 C 18,9 C 60 % 1012,8 hPa 0,0 l/m 2 min 0 min 693 W/m 25,7 km/h (4 Bft) 97,87 %
30.07.2023 17:46 22,9 C 26,1 C 18,9 C 61 % 1012,7 hPa 0,0 l/m 2 min 0 min 647 W/m 19,3 km/h (3 Bft) 100,00 %
30.07.2023 17:48 23,1 C 25,0 C 18,9 C 61 % 1012,8 hPa 0,0 l/m 2 min 0 min 462 W/m 29,0 km/h (5 Bft) 100,00 %
30.07.2023 17:50 23,1 C 23,9 C 18,9 C 61 % 1012,7 hPa 0,0 l/m 0 min 0 min 205 W/m 19,3 km/h (3 Bft) 100,00 %
30.07.2023 17:52 23,0 C 23,9 C 18,3 C 61 % 1012,6 hPa 0,0 l/m 0 min 0 min 227 W/m 25,7 km/h (4 Bft) 97,83 %
30.07.2023 17:54 22,9 C 24,4 C 18,3 C 61 % 1012,8 hPa 0,0 l/m 2 min 0 min 368 W/m 22,5 km/h (4 Bft) 100,00 %
30.07.2023 17:56 23,0 C 25,0 C 18,9 C 61 % 1012,8 hPa 0,0 l/m 2 min 0 min 385 W/m 25,7 km/h (4 Bft) 100,00 %
30.07.2023 17:58 23,0 C 23,9 C 18,3 C 60 % 1012,7 hPa 0,0 l/m 2 min 0 min 247 W/m 22,5 km/h (4 Bft) 100,00 %
30.07.2023 18:00 22,9 C 22,8 C 18,3 C 60 % 1012,7 hPa 0,0 l/m 0 min 0 min 151 W/m 19,3 km/h (3 Bft) 100,00 %
30.07.2023 18:02 22,8 C 22,8 C 18,3 C 61 % 1012,6 hPa 0,0 l/m 0 min 0 min 173 W/m 19,3 km/h (3 Bft) 97,87 %
30.07.2023 18:04 22,8 C 23,3 C 18,3 C 62 % 1012,7 hPa 0,0 l/m 0 min 0 min 210 W/m 12,9 km/h (3 Bft) 97,62 %
30.07.2023 18:08 22,8 C 25,6 C 18,9 C 60 % 1012,7 hPa 0,0 l/m 4 min 0 min 509 W/m 35,4 km/h (5 Bft) 98,02 %
30.07.2023 18:10 23,0 C 26,1 C 18,9 C 62 % 1012,7 hPa 0,0 l/m 2 min 0 min 610 W/m 16,1 km/h (3 Bft) 94,29 %
30.07.2023 18:12 23,1 C 25,6 C 18,9 C 60 % 1012,7 hPa 0,0 l/m 2 min 0 min 566 W/m 19,3 km/h (3 Bft) 93,62 %
30.07.2023 18:14 23,2 C 26,1 C 19,4 C 60 % 1012,6 hPa 0,0 l/m 2 min 0 min 442 W/m 35,4 km/h (5 Bft) 95,74 %
30.07.2023 18:16 23,2 C 25,6 C 18,9 C 60 % 1012,6 hPa 0,0 l/m 2 min 0 min 406 W/m 29,0 km/h (5 Bft) 96,61 %
30.07.2023 18:18 23,2 C 24,4 C 18,9 C 58 % 1012,6 hPa 0,0 l/m 2 min 0 min 366 W/m 22,5 km/h (4 Bft) 97,14 %
30.07.2023 18:20 23,2 C 23,9 C 18,9 C 58 % 1012,7 hPa 0,0 l/m 2 min 0 min 251 W/m 38,6 km/h (5 Bft) 97,87 %
30.07.2023 18:22 23,2 C 24,4 C 18,9 C 58 % 1012,7 hPa 0,0 l/m 2 min 0 min 251 W/m 25,7 km/h (4 Bft) 97,83 %
30.07.2023 18:24 23,1 C 23,9 C 18,9 C 58 % 1012,8 hPa 0,0 l/m 2 min 0 min 251 W/m 16,1 km/h (3 Bft) 97,87 %
30.07.2023 18:26 23,1 C 23,3 C 18,9 C 58 % 1012,8 hPa 0,0 l/m 2 min 0 min 259 W/m 25,7 km/h (4 Bft) 95,74 %
30.07.2023 18:28 22,9 C 22,8 C 18,3 C 58 % 1012,7 hPa 0,0 l/m 2 min 0 min 240 W/m 25,7 km/h (4 Bft) 95,74 %
30.07.2023 18:30 22,9 C 22,8 C 18,3 C 59 % 1012,6 hPa 0,0 l/m 2 min 0 min 212 W/m 16,1 km/h (3 Bft) 97,87 %
30.07.2023 18:32 22,8 C 22,2 C 18,3 C 59 % 1012,7 hPa 0,0 l/m 0 min 0 min 200 W/m 16,1 km/h (3 Bft) 97,87 %
30.07.2023 18:34 22,8 C 22,2 C 18,3 C 58 % 1012,6 hPa 0,0 l/m 0 min 0 min 200 W/m 29,0 km/h (5 Bft) 97,87 %
30.07.2023 18:36 22,7 C 22,2 C 18,3 C 59 % 1012,6 hPa 0,0 l/m 2 min 0 min 205 W/m 16,1 km/h (3 Bft) 97,83 %
30.07.2023 18:38 22,7 C 22,2 C 18,3 C 59 % 1012,4 hPa 0,0 l/m 2 min 0 min 199 W/m 22,5 km/h (4 Bft) 100,00 %
30.07.2023 18:40 22,6 C 22,2 C 18,3 C 59 % 1012,5 hPa 0,0 l/m 0 min 0 min 177 W/m 19,3 km/h (3 Bft) 100,00 %
30.07.2023 18:42 22,6 C 22,2 C 17,8 C 59 % 1012,5 hPa 0,0 l/m 0 min 0 min 158 W/m 19,3 km/h (3 Bft) 95,74 %
30.07.2023 18:44 22,6 C 22,2 C 17,8 C 59 % 1012,4 hPa 0,0 l/m 0 min 0 min 159 W/m 19,3 km/h (3 Bft) 97,87 %
30.07.2023 18:46 22,5 C 22,2 C 17,8 C 60 % 1012,3 hPa 0,0 l/m 0 min 0 min 160 W/m 9,7 km/h (2 Bft) 97,87 %
30.07.2023 18:48 22,5 C 22,2 C 17,8 C 60 % 1012,4 hPa 0,0 l/m 0 min 0 min 148 W/m 12,9 km/h (3 Bft) 97,87 %
30.07.2023 18:50 22,5 C 22,2 C 17,8 C 61 % 1012,4 hPa 0,0 l/m 0 min 0 min 141 W/m 12,9 km/h (3 Bft) 97,83 %
30.07.2023 18:52 22,4 C 22,2 C 17,8 C 60 % 1012,4 hPa 0,0 l/m 0 min 0 min 142 W/m 16,1 km/h (3 Bft) 97,87 %
30.07.2023 18:54 22,4 C 22,2 C 17,8 C 60 % 1012,4 hPa 0,0 l/m 0 min 0 min 157 W/m 12,9 km/h (3 Bft) 97,87 %
30.07.2023 18:56 22,4 C 21,7 C 17,8 C 60 % 1012,5 hPa 0,0 l/m 0 min 0 min 160 W/m 19,3 km/h (3 Bft) 97,87 %
30.07.2023 18:58 22,4 C 21,7 C 17,8 C 60 % 1012,5 hPa 0,0 l/m 0 min 0 min 142 W/m 16,1 km/h (3 Bft) 95,74 %
30.07.2023 19:00 22,4 C 21,7 C 17,8 C 60 % 1012,5 hPa 0,0 l/m 0 min 0 min 123 W/m 6,4 km/h (2 Bft) 97,87 %
30.07.2023 19:02 22,4 C 21,7 C 17,8 C 59 % 1012,5 hPa 0,0 l/m 0 min 0 min 101 W/m 16,1 km/h (3 Bft) 97,83 %
30.07.2023 19:04 22,3 C 21,7 C 17,8 C 59 % 1012,5 hPa 0,0 l/m 0 min 0 min 89 W/m 22,5 km/h (4 Bft) 95,74 %
30.07.2023 19:06 22,3 C 21,7 C 17,8 C 60 % 1012,5 hPa 0,0 l/m 0 min 0 min 89 W/m 16,1 km/h (3 Bft) 96,67 %
30.07.2023 19:08 22,3 C 21,7 C 17,8 C 60 % 1012,6 hPa 0,0 l/m 0 min 0 min 88 W/m 9,7 km/h (2 Bft) 97,14 %
30.07.2023 19:10 22,2 C 21,1 C 17,8 C 60 % 1012,6 hPa 0,0 l/m 0 min 0 min 81 W/m 19,3 km/h (3 Bft) 97,92 %
30.07.2023 19:12 22,2 C 21,1 C 17,8 C 60 % 1012,7 hPa 0,0 l/m 0 min 0 min 62 W/m 12,9 km/h (3 Bft) 95,74 %
30.07.2023 19:14 22,1 C 21,1 C 17,2 C 60 % 1012,8 hPa 0,0 l/m 0 min 0 min 40 W/m 16,1 km/h (3 Bft) 97,83 %
30.07.2023 19:16 22,1 C 21,1 C 17,2 C 60 % 1012,8 hPa 0,0 l/m 0 min 0 min 33 W/m 12,9 km/h (3 Bft) 97,87 %
30.07.2023 19:18 22,0 C 21,1 C 17,2 C 60 % 1012,8 hPa 0,0 l/m 0 min 0 min 34 W/m 19,3 km/h (3 Bft) 95,74 %
30.07.2023 19:20 21,9 C 21,1 C 17,2 C 60 % 1012,8 hPa 0,0 l/m 0 min 0 min 40 W/m 22,5 km/h (4 Bft) 97,87 %
30.07.2023 19:22 21,9 C 21,1 C 17,2 C 60 % 1012,9 hPa 0,0 l/m 0 min 0 min 40 W/m 19,3 km/h (3 Bft) 97,87 %
30.07.2023 19:24 21,8 C 20,6 C 17,2 C 61 % 1013,1 hPa 0,0 l/m 0 min 2 min 39 W/m 19,3 km/h (3 Bft) 95,74 %
30.07.2023 19:26 21,7 C 20,6 C 16,7 C 61 % 1013,1 hPa 0,0 l/m 0 min 0 min 37 W/m 19,3 km/h (3 Bft) 97,87 %
30.07.2023 19:28 21,6 C 20,6 C 16,7 C 61 % 1013,2 hPa 0,0 l/m 0 min 0 min 37 W/m 16,1 km/h (3 Bft) 95,65 %
30.07.2023 19:30 21,4 C 20,6 C 16,7 C 62 % 1013,2 hPa 0,0 l/m 0 min 0 min 33 W/m 25,7 km/h (4 Bft) 95,74 %
30.07.2023 19:32 21,4 C 20,0 C 16,7 C 63 % 1013,3 hPa 0,0 l/m 0 min 2 min 33 W/m 9,7 km/h (2 Bft) 95,74 %
30.07.2023 19:34 21,3 C 20,0 C 16,7 C 63 % 1013,4 hPa 0,0 l/m 0 min 2 min 30 W/m 25,7 km/h (4 Bft) 95,74 %
30.07.2023 19:36 21,1 C 20,0 C 16,1 C 64 % 1013,4 hPa 0,0 l/m 0 min 0 min 31 W/m 22,5 km/h (4 Bft) 97,87 %
30.07.2023 19:38 21,1 C 20,0 C 16,1 C 66 % 1013,7 hPa 0,0 l/m 0 min 2 min 30 W/m 25,7 km/h (4 Bft) 97,87 %
30.07.2023 19:40 20,8 C 19,4 C 15,6 C 69 % 1013,7 hPa 0,0 l/m 0 min 2 min 26 W/m 22,5 km/h (4 Bft) 97,83 %
30.07.2023 19:42 20,7 C 18,9 C 15,6 C 69 % 1013,7 hPa 0,0 l/m 0 min 0 min 25 W/m 16,1 km/h (3 Bft) 97,87 %
30.07.2023 19:44 20,4 C 18,9 C 15,0 C 72 % 1014,0 hPa 0,0 l/m 0 min 2 min 23 W/m 16,1 km/h (3 Bft) 95,83 %
30.07.2023 19:46 20,2 C 18,3 C 14,4 C 74 % 1014,0 hPa 0,0 l/m 0 min 2 min 25 W/m 22,5 km/h (4 Bft) 95,74 %
30.07.2023 19:48 19,9 C 18,3 C 13,9 C 75 % 1014,1 hPa 0,0 l/m 0 min 2 min 23 W/m 22,5 km/h (4 Bft) 95,74 %
30.07.2023 19:50 19,7 C 17,8 C 13,9 C 77 % 1014,2 hPa 0,0 l/m 0 min 2 min 21 W/m 19,3 km/h (3 Bft) 95,74 %
30.07.2023 19:52 19,4 C 17,8 C 13,3 C 78 % 1014,1 hPa 0,0 l/m 0 min 2 min 21 W/m 25,7 km/h (4 Bft) 97,87 %
30.07.2023 19:54 19,1 C 17,2 C 12,8 C 80 % 1014,2 hPa 0,0 l/m 0 min 2 min 19 W/m 19,3 km/h (3 Bft) 95,65 %
30.07.2023 19:56 18,8 C 16,7 C 12,8 C 82 % 1014,2 hPa 0,2 l/m 0 min 2 min 18 W/m 25,7 km/h (4 Bft) 97,87 %
30.07.2023 19:58 18,7 C 16,7 C 12,2 C 83 % 1014,2 hPa 0,0 l/m 0 min 2 min 19 W/m 12,9 km/h (3 Bft) 95,74 %
30.07.2023 20:00 18,4 C 16,1 C 12,2 C 85 % 1014,2 hPa 0,0 l/m 0 min 2 min 19 W/m 22,5 km/h (4 Bft) 95,74 %
30.07.2023 20:02 18,2 C 16,1 C 12,2 C 86 % 1014,3 hPa 0,2 l/m 0 min 2 min 17 W/m 19,3 km/h (3 Bft) 93,62 %
30.07.2023 20:04 17,9 C 15,6 C 12,2 C 87 % 1014,2 hPa 0,0 l/m 0 min 2 min 16 W/m 16,1 km/h (3 Bft) 95,74 %
30.07.2023 20:06 17,7 C 15,6 C 12,2 C 88 % 1014,2 hPa 0,0 l/m 0 min 2 min 15 W/m 16,1 km/h (3 Bft) 96,67 %
30.07.2023 20:08 17,6 C 15,6 C 12,2 C 89 % 1014,2 hPa 0,2 l/m 0 min 2 min 14 W/m 12,9 km/h (3 Bft) 94,29 %
30.07.2023 20:10 17,6 C 15,6 C 12,2 C 90 % 1014,2 hPa 0,0 l/m 0 min 2 min 12 W/m 6,4 km/h (2 Bft) 95,74 %
30.07.2023 20:12 17,5 C 15,6 C 12,2 C 90 % 1014,2 hPa 0,0 l/m 0 min 0 min 13 W/m 12,9 km/h (3 Bft) 93,62 %
30.07.2023 20:14 17,4 C 15,6 C 12,2 C 90 % 1014,2 hPa 0,0 l/m 0 min 2 min 16 W/m 9,7 km/h (2 Bft) 95,74 %
30.07.2023 20:16 17,4 C 16,1 C 12,2 C 91 % 1014,2 hPa 0,0 l/m 0 min 2 min 16 W/m 6,4 km/h (2 Bft) 97,87 %
30.07.2023 20:18 17,3 C 16,1 C 12,2 C 91 % 1014,2 hPa 0,0 l/m 0 min 2 min 17 W/m 9,7 km/h (2 Bft) 97,87 %
30.07.2023 20:20 17,3 C 16,1 C 12,2 C 92 % 1014,1 hPa 0,0 l/m 0 min 2 min 22 W/m 6,4 km/h (2 Bft) 95,74 %
30.07.2023 20:22 17,3 C 16,1 C 12,2 C 92 % 1014,1 hPa 0,0 l/m 0 min 2 min 26 W/m 3,2 km/h (1 Bft) 97,83 %
30.07.2023 20:24 17,3 C 16,1 C 12,2 C 92 % 1014,1 hPa 0,2 l/m 0 min 0 min 26 W/m 6,4 km/h (2 Bft) 97,87 %
30.07.2023 20:26 17,3 C 16,1 C 12,2 C 92 % 1014,1 hPa 0,0 l/m 0 min 0 min 23 W/m 3,2 km/h (1 Bft) 97,87 %
30.07.2023 20:28 17,3 C 16,1 C 12,2 C 92 % 1014,0 hPa 0,0 l/m 0 min 2 min 20 W/m 3,2 km/h (1 Bft) 97,87 %
30.07.2023 20:30 17,3 C 16,1 C 12,2 C 93 % 1014,0 hPa 0,0 l/m 0 min 2 min 16 W/m 3,2 km/h (1 Bft) 95,74 %
30.07.2023 20:32 17,2 C 16,1 C 12,2 C 93 % 1014,0 hPa 0,0 l/m 0 min 0 min 17 W/m 12,9 km/h (3 Bft) 97,87 %
30.07.2023 20:34 17,2 C 16,1 C 12,2 C 93 % 1014,0 hPa 0,0 l/m 0 min 0 min 16 W/m 6,4 km/h (2 Bft) 100,00 %
30.07.2023 20:36 17,2 C 16,1 C 12,2 C 93 % 1014,0 hPa 0,0 l/m 0 min 0 min 14 W/m 6,4 km/h (2 Bft) 100,00 %
30.07.2023 20:38 17,1 C 16,1 C 12,2 C 93 % 1014,0 hPa 0,0 l/m 0 min 0 min 12 W/m 6,4 km/h (2 Bft) 97,87 %
30.07.2023 20:40 17,1 C 16,1 C 12,2 C 93 % 1014,0 hPa 0,0 l/m 0 min 0 min 11 W/m 6,4 km/h (2 Bft) 100,00 %
30.07.2023 20:42 17,1 C 16,1 C 12,2 C 93 % 1014,0 hPa 0,0 l/m 0 min 0 min 8 W/m 12,9 km/h (3 Bft) 97,87 %
30.07.2023 20:44 17,0 C 16,1 C 12,2 C 93 % 1014,0 hPa 0,0 l/m 0 min 0 min 7 W/m 3,2 km/h (1 Bft) 95,74 %
30.07.2023 20:46 17,0 C 16,1 C 12,2 C 93 % 1014,0 hPa 0,0 l/m 0 min 0 min 7 W/m 6,4 km/h (2 Bft) 100,00 %
30.07.2023 20:48 16,9 C 16,1 C 12,2 C 93 % 1014,0 hPa 0,0 l/m 0 min 0 min 7 W/m 12,9 km/h (3 Bft) 100,00 %
30.07.2023 20:50 16,9 C 16,1 C 12,2 C 93 % 1014,0 hPa 0,0 l/m 0 min 2 min 7 W/m 12,9 km/h (3 Bft) 97,87 %
30.07.2023 20:52 16,9 C 16,1 C 12,2 C 93 % 1014,0 hPa 0,0 l/m 0 min 2 min 7 W/m 6,4 km/h (2 Bft) 100,00 %
30.07.2023 20:54 16,9 C 16,1 C 12,2 C 94 % 1014,0 hPa 0,0 l/m 0 min 2 min 6 W/m 12,9 km/h (3 Bft) 97,87 %
30.07.2023 20:56 16,8 C 16,1 C 12,2 C 94 % 1014,0 hPa 0,0 l/m 0 min 2 min 5 W/m 12,9 km/h (3 Bft) 100,00 %
30.07.2023 20:58 16,8 C 16,1 C 12,2 C 94 % 1014,0 hPa 0,0 l/m 0 min 2 min 5 W/m 22,5 km/h (4 Bft) 100,00 %
30.07.2023 21:00 16,8 C 16,1 C 12,2 C 94 % 1014,0 hPa 0,0 l/m 0 min 2 min 5 W/m 19,3 km/h (3 Bft) 100,00 %
30.07.2023 21:02 16,8 C 16,1 C 12,2 C 94 % 1014,0 hPa 0,0 l/m 0 min 2 min 5 W/m 16,1 km/h (3 Bft) 100,00 %
30.07.2023 21:04 16,7 C 16,1 C 12,2 C 94 % 1014,1 hPa 0,0 l/m 0 min 2 min 2 W/m 22,5 km/h (4 Bft) 100,00 %
30.07.2023 21:06 16,7 C 16,1 C 11,7 C 94 % 1014,0 hPa 0,0 l/m 0 min 2 min 0 W/m 22,5 km/h (4 Bft) 100,00 %
30.07.2023 21:08 16,7 C 16,1 C 11,7 C 94 % 1013,9 hPa 0,0 l/m 0 min 2 min 0 W/m 12,9 km/h (3 Bft) 100,00 %
30.07.2023 21:10 16,7 C 16,1 C 11,7 C 94 % 1013,9 hPa 0,0 l/m 0 min 2 min 0 W/m 12,9 km/h (3 Bft) 100,00 %
30.07.2023 21:12 16,7 C 15,6 C 11,7 C 94 % 1013,9 hPa 0,0 l/m 0 min 2 min 0 W/m 16,1 km/h (3 Bft) 97,83 %
30.07.2023 21:14 16,6 C 15,6 C 11,7 C 94 % 1013,8 hPa 0,0 l/m 0 min 2 min 0 W/m 32,2 km/h (5 Bft) 100,00 %
30.07.2023 21:16 16,6 C 15,6 C 11,7 C 94 % 1013,9 hPa 0,0 l/m 0 min 2 min 0 W/m 16,1 km/h (3 Bft) 97,87 %
30.07.2023 21:18 16,6 C 15,6 C 11,7 C 94 % 1013,9 hPa 0,0 l/m 0 min 2 min 0 W/m 12,9 km/h (3 Bft) 100,00 %
30.07.2023 21:20 16,6 C 15,6 C 11,7 C 94 % 1013,9 hPa 0,0 l/m 0 min 2 min 0 W/m 16,1 km/h (3 Bft) 100,00 %
30.07.2023 21:22 16,7 C 15,6 C 11,7 C 94 % 1014,1 hPa 0,2 l/m 0 min 2 min 0 W/m 25,7 km/h (4 Bft) 97,87 %
30.07.2023 21:24 16,6 C 15,6 C 11,7 C 94 % 1014,1 hPa 0,2 l/m 0 min 2 min 0 W/m 25,7 km/h (4 Bft) 100,00 %
30.07.2023 21:26 16,6 C 15,6 C 11,7 C 95 % 1014,1 hPa 0,0 l/m 0 min 2 min 0 W/m 19,3 km/h (3 Bft) 100,00 %
30.07.2023 21:28 16,5 C 15,6 C 11,7 C 95 % 1014,1 hPa 0,2 l/m 0 min 2 min 0 W/m 19,3 km/h (3 Bft) 100,00 %
30.07.2023 21:30 16,5 C 15,0 C 11,7 C 95 % 1013,9 hPa 0,2 l/m 0 min 2 min 0 W/m 16,1 km/h (3 Bft) 100,00 %
30.07.2023 21:32 16,4 C 15,0 C 11,7 C 95 % 1013,9 hPa 0,0 l/m 0 min 2 min 0 W/m 6,4 km/h (2 Bft) 97,87 %
30.07.2023 21:34 16,4 C 15,0 C 11,7 C 95 % 1013,8 hPa 0,0 l/m 0 min 2 min 0 W/m 6,4 km/h (2 Bft) 98,00 %
30.07.2023 21:36 16,4 C 15,0 C 11,7 C 95 % 1013,7 hPa 0,2 l/m 0 min 2 min 0 W/m 12,9 km/h (3 Bft) 100,00 %
30.07.2023 21:38 16,4 C 15,0 C 11,7 C 95 % 1013,7 hPa 0,0 l/m 0 min 2 min 0 W/m 12,9 km/h (3 Bft) 95,74 %
30.07.2023 21:40 16,4 C 15,0 C 11,7 C 95 % 1013,6 hPa 0,0 l/m 0 min 2 min 0 W/m 6,4 km/h (2 Bft) 97,87 %
30.07.2023 21:42 16,4 C 15,6 C 11,7 C 95 % 1013,7 hPa 0,2 l/m 0 min 2 min 0 W/m 12,9 km/h (3 Bft) 97,83 %
30.07.2023 21:44 16,4 C 15,0 C 11,7 C 95 % 1013,6 hPa 0,0 l/m 0 min 2 min 0 W/m 12,9 km/h (3 Bft) 95,74 %
30.07.2023 21:46 16,4 C 15,0 C 11,7 C 95 % 1013,6 hPa 0,0 l/m 0 min 2 min 0 W/m 19,3 km/h (3 Bft) 97,87 %
30.07.2023 21:48 16,4 C 15,0 C 11,7 C 96 % 1013,6 hPa 0,2 l/m 0 min 2 min 0 W/m 6,4 km/h (2 Bft) 95,74 %
30.07.2023 21:50 16,4 C 15,0 C 11,7 C 96 % 1013,5 hPa 0,2 l/m 0 min 2 min 0 W/m 9,7 km/h (2 Bft) 93,62 %
30.07.2023 21:52 16,4 C 15,0 C 11,7 C 96 % 1013,6 hPa 0,2 l/m 0 min 2 min 0 W/m 12,9 km/h (3 Bft) 93,62 %
30.07.2023 21:54 16,4 C 15,0 C 11,7 C 96 % 1013,5 hPa 0,2 l/m 0 min 2 min 0 W/m 16,1 km/h (3 Bft) 95,65 %
30.07.2023 21:56 16,4 C 15,0 C 11,7 C 96 % 1013,3 hPa 0,4 l/m 0 min 2 min 0 W/m 9,7 km/h (2 Bft) 93,62 %
30.07.2023 21:58 16,4 C 15,0 C 11,7 C 96 % 1013,5 hPa 0,0 l/m 0 min 2 min 0 W/m 6,4 km/h (2 Bft) 93,62 %
30.07.2023 22:00 16,4 C 15,0 C 11,7 C 96 % 1013,4 hPa 0,2 l/m 0 min 2 min 0 W/m 6,4 km/h (2 Bft) 95,74 %
30.07.2023 22:02 16,4 C 15,0 C 11,7 C 96 % 1013,4 hPa 0,2 l/m 0 min 2 min 0 W/m 6,4 km/h (2 Bft) 95,74 %
30.07.2023 22:04 16,4 C 15,0 C 11,7 C 96 % 1013,4 hPa 0,0 l/m 0 min 2 min 0 W/m 6,4 km/h (2 Bft) 96,00 %
30.07.2023 22:06 16,4 C 15,0 C 12,2 C 96 % 1013,3 hPa 0,2 l/m 0 min 2 min 0 W/m 12,9 km/h (3 Bft) 47,50 %
30.07.2023 22:08 16,3 C 15,0 C 11,7 C 96 % 1013,2 hPa 0,0 l/m 0 min 2 min 0 W/m 12,9 km/h (3 Bft) 95,65 %
30.07.2023 22:10 16,3 C 15,0 C 11,7 C 96 % 1013,2 hPa 0,2 l/m 0 min 2 min 0 W/m 16,1 km/h (3 Bft) 91,49 %
30.07.2023 22:12 16,3 C 15,0 C 11,7 C 96 % 1013,3 hPa 0,0 l/m 0 min 2 min 0 W/m 22,5 km/h (4 Bft) 95,74 %
30.07.2023 22:14 16,2 C 15,0 C 11,7 C 96 % 1013,4 hPa 0,2 l/m 0 min 2 min 0 W/m 16,1 km/h (3 Bft) 95,74 %
30.07.2023 22:16 16,2 C 15,0 C 11,7 C 96 % 1013,3 hPa 0,0 l/m 0 min 2 min 0 W/m 22,5 km/h (4 Bft) 95,74 %
30.07.2023 22:18 16,2 C 15,0 C 11,7 C 96 % 1013,3 hPa 0,2 l/m 0 min 2 min 0 W/m 16,1 km/h (3 Bft) 97,87 %
30.07.2023 22:20 16,2 C 15,0 C 11,7 C 96 % 1013,2 hPa 0,0 l/m 0 min 2 min 0 W/m 22,5 km/h (4 Bft) 95,65 %
30.07.2023 22:22 16,1 C 15,0 C 11,7 C 96 % 1013,2 hPa 0,0 l/m 0 min 2 min 0 W/m 16,1 km/h (3 Bft) 95,74 %
30.07.2023 22:24 16,2 C 15,0 C 11,7 C 97 % 1013,2 hPa 0,2 l/m 0 min 2 min 0 W/m 16,1 km/h (3 Bft) 95,74 %
30.07.2023 22:26 16,2 C 15,0 C 11,7 C 97 % 1013,2 hPa 0,0 l/m 0 min 2 min 0 W/m 19,3 km/h (3 Bft) 91,49 %
30.07.2023 22:28 16,2 C 15,0 C 11,7 C 97 % 1013,2 hPa 0,0 l/m 0 min 2 min 0 W/m 29,0 km/h (5 Bft) 97,87 %
30.07.2023 22:30 16,2 C 15,0 C 11,7 C 97 % 1013,0 hPa 0,0 l/m 0 min 2 min 0 W/m 16,1 km/h (3 Bft) 100,00 %
30.07.2023 22:32 16,1 C 15,0 C 11,7 C 97 % 1013,1 hPa 0,2 l/m 0 min 2 min 0 W/m 32,2 km/h (5 Bft) 97,83 %
30.07.2023 22:34 16,1 C 15,0 C 11,7 C 97 % 1013,0 hPa 0,0 l/m 0 min 2 min 0 W/m 22,5 km/h (4 Bft) 97,87 %
30.07.2023 22:36 16,1 C 15,0 C 11,7 C 97 % 1013,1 hPa 0,0 l/m 0 min 2 min 0 W/m 16,1 km/h (3 Bft) 97,87 %
30.07.2023 22:38 16,1 C 15,0 C 11,7 C 97 % 1013,0 hPa 0,0 l/m 0 min 2 min 0 W/m 19,3 km/h (3 Bft) 95,74 %
30.07.2023 22:40 16,1 C 15,0 C 11,7 C 97 % 1013,0 hPa 0,0 l/m 0 min 2 min 0 W/m 16,1 km/h (3 Bft) 95,74 %
30.07.2023 22:42 16,1 C 15,0 C 11,7 C 97 % 1013,0 hPa 0,0 l/m 0 min 2 min 0 W/m 12,9 km/h (3 Bft) 95,74 %
30.07.2023 22:44 16,1 C 15,0 C 11,7 C 97 % 1012,9 hPa 0,0 l/m 0 min 2 min 0 W/m 19,3 km/h (3 Bft) 97,87 %
30.07.2023 22:46 16,1 C 15,0 C 11,7 C 97 % 1012,8 hPa 0,0 l/m 0 min 2 min 0 W/m 22,5 km/h (4 Bft) 97,83 %
30.07.2023 22:48 16,1 C 15,0 C 11,7 C 97 % 1012,8 hPa 0,0 l/m 0 min 0 min 0 W/m 25,7 km/h (4 Bft) 97,87 %
30.07.2023 22:50 16,1 C 15,0 C 11,7 C 97 % 1012,8 hPa 0,0 l/m 0 min 2 min 0 W/m 32,2 km/h (5 Bft) 97,87 %
30.07.2023 22:52 16,1 C 15,0 C 11,7 C 97 % 1012,8 hPa 0,0 l/m 0 min 2 min 0 W/m 22,5 km/h (4 Bft) 95,74 %
30.07.2023 22:54 16,1 C 15,0 C 11,7 C 97 % 1012,8 hPa 0,0 l/m 0 min 2 min 0 W/m 16,1 km/h (3 Bft) 95,74 %
30.07.2023 22:56 16,1 C 15,0 C 11,7 C 97 % 1012,8 hPa 0,2 l/m 0 min 2 min 0 W/m 22,5 km/h (4 Bft) 97,87 %
30.07.2023 22:58 16,1 C 15,0 C 11,7 C 97 % 1012,9 hPa 0,0 l/m 0 min 2 min 0 W/m 16,1 km/h (3 Bft) 97,87 %
30.07.2023 23:00 16,1 C 15,0 C 11,7 C 97 % 1012,9 hPa 0,0 l/m 0 min 2 min 0 W/m 12,9 km/h (3 Bft) 97,83 %
30.07.2023 23:02 16,1 C 15,0 C 11,7 C 97 % 1012,8 hPa 0,0 l/m 0 min 2 min 0 W/m 12,9 km/h (3 Bft) 97,87 %
30.07.2023 23:04 16,1 C 15,0 C 11,7 C 97 % 1012,8 hPa 0,0 l/m 0 min 2 min 0 W/m 22,5 km/h (4 Bft) 96,00 %
30.07.2023 23:06 16,1 C 15,0 C 11,7 C 97 % 1012,7 hPa 0,0 l/m 0 min 2 min 0 W/m 19,3 km/h (3 Bft) 97,87 %
30.07.2023 23:08 16,1 C 15,0 C 11,7 C 97 % 1012,7 hPa 0,0 l/m 0 min 0 min 0 W/m 16,1 km/h (3 Bft) 95,74 %
30.07.2023 23:10 16,1 C 15,0 C 11,7 C 97 % 1012,7 hPa 0,0 l/m 0 min 2 min 0 W/m 25,7 km/h (4 Bft) 95,74 %
30.07.2023 23:12 16,1 C 15,0 C 11,7 C 97 % 1012,8 hPa 0,2 l/m 0 min 2 min 0 W/m 25,7 km/h (4 Bft) 100,00 %
30.07.2023 23:14 16,1 C 15,0 C 11,7 C 98 % 1012,7 hPa 0,0 l/m 0 min 2 min 0 W/m 12,9 km/h (3 Bft) 100,00 %
30.07.2023 23:16 16,1 C 15,0 C 11,7 C 98 % 1012,7 hPa 0,0 l/m 0 min 2 min 0 W/m 25,7 km/h (4 Bft) 100,00 %
30.07.2023 23:18 16,1 C 15,0 C 11,7 C 98 % 1012,6 hPa 0,0 l/m 0 min 2 min 0 W/m 32,2 km/h (5 Bft) 100,00 %
30.07.2023 23:20 16,1 C 15,0 C 11,7 C 98 % 1012,9 hPa 0,0 l/m 0 min 2 min 0 W/m 29,0 km/h (5 Bft) 97,87 %
30.07.2023 23:22 16,1 C 15,0 C 11,7 C 98 % 1012,6 hPa 0,0 l/m 0 min 2 min 0 W/m 22,5 km/h (4 Bft) 100,00 %
30.07.2023 23:24 16,1 C 15,0 C 11,7 C 98 % 1012,6 hPa 0,0 l/m 0 min 2 min 0 W/m 19,3 km/h (3 Bft) 100,00 %
30.07.2023 23:26 16,1 C 15,0 C 11,7 C 98 % 1012,7 hPa 0,0 l/m 0 min 2 min 0 W/m 19,3 km/h (3 Bft) 97,83 %
30.07.2023 23:28 16,1 C 15,0 C 11,7 C 98 % 1012,6 hPa 0,0 l/m 0 min 2 min 0 W/m 22,5 km/h (4 Bft) 97,87 %
30.07.2023 23:30 16,1 C 15,0 C 11,7 C 98 % 1012,5 hPa 0,2 l/m 0 min 2 min 0 W/m 16,1 km/h (3 Bft) 95,74 %
30.07.2023 23:32 16,1 C 15,0 C 11,7 C 98 % 1012,6 hPa 0,0 l/m 0 min 2 min 0 W/m 22,5 km/h (4 Bft) 93,62 %
30.07.2023 23:34 16,1 C 15,0 C 11,7 C 98 % 1012,5 hPa 0,0 l/m 0 min 2 min 0 W/m 16,1 km/h (3 Bft) 100,00 %
30.07.2023 23:36 16,1 C 15,0 C 11,7 C 98 % 1012,5 hPa 0,0 l/m 0 min 2 min 0 W/m 22,5 km/h (4 Bft) 100,00 %
30.07.2023 23:38 16,1 C 15,0 C 11,7 C 98 % 1012,5 hPa 0,2 l/m 0 min 2 min 0 W/m 22,5 km/h (4 Bft) 97,83 %
30.07.2023 23:40 16,1 C 15,0 C 11,7 C 98 % 1012,5 hPa 0,0 l/m 0 min 2 min 0 W/m 22,5 km/h (4 Bft) 97,87 %
30.07.2023 23:42 16,1 C 15,0 C 11,7 C 98 % 1012,4 hPa 0,0 l/m 0 min 2 min 0 W/m 29,0 km/h (5 Bft) 97,87 %
30.07.2023 23:44 16,1 C 15,0 C 11,7 C 98 % 1012,4 hPa 0,0 l/m 0 min 2 min 0 W/m 22,5 km/h (4 Bft) 95,74 %
30.07.2023 23:46 16,1 C 15,0 C 11,7 C 98 % 1012,4 hPa 0,0 l/m 0 min 2 min 0 W/m 19,3 km/h (3 Bft) 97,87 %
30.07.2023 23:48 16,1 C 15,0 C 11,7 C 98 % 1012,4 hPa 0,0 l/m 0 min 2 min 0 W/m 25,7 km/h (4 Bft) 97,87 %
30.07.2023 23:50 16,1 C 15,0 C 11,7 C 98 % 1012,4 hPa 0,0 l/m 0 min 2 min 0 W/m 32,2 km/h (5 Bft) 95,74 %
30.07.2023 23:52 16,1 C 15,0 C 11,7 C 98 % 1012,4 hPa 0,0 l/m 0 min 0 min 0 W/m 22,5 km/h (4 Bft) 97,83 %
30.07.2023 23:54 16,1 C 15,0 C 11,7 C 98 % 1012,4 hPa 0,0 l/m 0 min 2 min 0 W/m 38,6 km/h (5 Bft) 97,87 %
30.07.2023 23:56 16,1 C 15,0 C 11,7 C 98 % 1012,3 hPa 0,0 l/m 0 min 2 min 0 W/m 25,7 km/h (4 Bft) 93,62 %
30.07.2023 23:58 16,1 C 15,0 C 11,7 C 98 % 1012,5 hPa 0,0 l/m 0 min 2 min 0 W/m 29,0 km/h (5 Bft) 97,87 %
_ Min-Zeit 05:34 04:00 04:28 18:18 00:00 - - - - 01:02 22:06
Minimum _ 14,4 C 13,9 C 10,6 C 58 % 1009,4 hPa - - - - 0,0 km/h (0 Bft) 47,50 %
_ Max-Zeit 18:14 15:16 12:28 23:14 20:02 21:56 18:08 12:50 13:12 12:38 00:30
Maximum _ 23,2 C 27,2 C 22,8 C 98 % 1014,3 hPa 0,4 l/m 4 min 2 min 1119 W/m 38,6 km/h
S-SO (5 Bft)
100,00 %
Durchschnitt _ 18,1 C 18,0 C 13,9 C 83 % 1012,0 hPa #5,6 l/m #4:50 h #3:58 h 302 W/m 14,0 km/h (3 Bft) 97,29 %
© 2023 W. Hausmann